Observation data for Persimmon Gap on 05/15/2018      Previous  Date  Next       Current Mesonet Observations  Soil Data  Daily Summary Page  Observations in Plain Language
KPG1 150500Z 02005KT 23/17 A2996 RMK A01 T02280165  RH  068%=      5-min Rain = 0
KPG1 150501Z 01005KT 23/16 A2996 RMK A01 T02270164  RH  068%=      5-min Rain = 0
KPG1 150502Z 02006KT 23/17 A2996 RMK A01 T02270165  RH  068%=      5-min Rain = 0
KPG1 150503Z 02006KT 23/17 A2996 RMK A01 T02270165  RH  068%=      5-min Rain = 0
KPG1 150504Z 03006KT 23/17 A2996 RMK A01 T02260166  RH  068%=      5-min Rain = 0
KPG1 150505Z 03006KT 23/17 A2996 RMK A01 T02250165  RH  069%=      5-min Rain = 0
KPG1 150506Z 05005KT 23/17 A2996 RMK A01 T02250165  RH  069%=      5-min Rain = 0
KPG1 150507Z 04006KT 22/17 A2996 RMK A01 T02240165  RH  069%=      5-min Rain = 0
KPG1 150508Z 03006KT 22/17 A2996 RMK A01 T02240166  RH  069%=      5-min Rain = 0
KPG1 150509Z 03005KT 22/17 A2996 RMK A01 T02240166  RH  069%=      5-min Rain = 0
KPG1 150510Z 03005KT 22/17 A2996 RMK A01 T02240165  RH  069%=      5-min Rain = 0
KPG1 150511Z 04004KT 22/17 A2996 RMK A01 T02240165  RH  069%=      5-min Rain = 0
KPG1 150512Z 04004KT 22/17 A2996 RMK A01 T02230165  RH  069%=      5-min Rain = 0
KPG1 150513Z 04004KT 22/17 A2996 RMK A01 T02240165  RH  069%=      5-min Rain = 0
KPG1 150514Z 03003KT 22/16 A2996 RMK A01 T02230164  RH  069%=      5-min Rain = 0
KPG1 150515Z 05003KT 22/16 A2996 RMK A01 T02230164  RH  069%=      5-min Rain = 0
KPG1 150516Z 08004KT 22/16 A2996 RMK A01 T02220164  RH  069%=      5-min Rain = 0
KPG1 150517Z 10003KT 22/16 A2996 RMK A01 T02220164  RH  070%=      5-min Rain = 0
KPG1 150518Z 09004KT 22/16 A2996 RMK A01 T02220164  RH  070%=      5-min Rain = 0
KPG1 150519Z 09003KT 22/16 A2996 RMK A01 T02210164  RH  070%=      5-min Rain = 0
KPG1 150520Z 09003KT 22/16 A2996 RMK A01 T02210163  RH  070%=      5-min Rain = 0
KPG1 150521Z 11005KT 22/16 A2996 RMK A01 T02210163  RH  070%=      5-min Rain = 0
KPG1 150522Z 10004KT 22/16 A2996 RMK A01 T02220162  RH  069%=      5-min Rain = 0
KPG1 150523Z 09003KT 22/16 A2996 RMK A01 T02240162  RH  068%=      5-min Rain = 0
KPG1 150524Z 07003KT 23/16 A2996 RMK A01 T02260162  RH  067%=      5-min Rain = 0
KPG1 150525Z 06003KT 23/16 A2996 RMK A01 T02270161  RH  066%=      5-min Rain = 0
KPG1 150526Z 05003KT 23/16 A2996 RMK A01 T02270161  RH  066%=      5-min Rain = 0
KPG1 150527Z 04003KT 23/16 A2996 RMK A01 T02270162  RH  066%=      5-min Rain = 0
KPG1 150528Z 04003KT 23/16 A2996 RMK A01 T02270162  RH  067%=      5-min Rain = 0
KPG1 150529Z 05004KT 23/16 A2996 RMK A01 T02270162  RH  067%=      5-min Rain = 0
KPG1 150530Z 04004KT 23/16 A2996 RMK A01 T02260161  RH  067%=      5-min Rain = 0
KPG1 150531Z 03003KT 23/16 A2996 RMK A01 T02250161  RH  067%=      5-min Rain = 0
KPG1 150532Z 02003KT 22/16 A2996 RMK A01 T02240161  RH  068%=      5-min Rain = 0
KPG1 150533Z 03003KT 22/16 A2996 RMK A01 T02230161  RH  068%=      5-min Rain = 0
KPG1 150534Z 03003KT 22/16 A2996 RMK A01 T02210160  RH  068%=      5-min Rain = 0
KPG1 150535Z 01002KT 22/16 A2996 RMK A01 T02190160  RH  069%=      5-min Rain = 0
KPG1 150536Z 03002KT 22/16 A2996 RMK A01 T02180160  RH  069%=      5-min Rain = 0
KPG1 150537Z 02002KT 22/16 A2996 RMK A01 T02180160  RH  070%=      5-min Rain = 0
KPG1 150538Z 02002KT 22/16 A2996 RMK A01 T02180161  RH  070%=      5-min Rain = 0
KPG1 150539Z 03002KT 22/16 A2996 RMK A01 T02180161  RH  070%=      5-min Rain = 0
KPG1 150540Z 06003KT 22/16 A2996 RMK A01 T02180160  RH  070%=      5-min Rain = 0
KPG1 150541Z 06003KT 22/16 A2996 RMK A01 T02170159  RH  070%=      5-min Rain = 0
KPG1 150542Z 05004KT 22/16 A2996 RMK A01 T02160160  RH  070%=      5-min Rain = 0
KPG1 150543Z 03004KT 22/16 A2996 RMK A01 T02160159  RH  070%=      5-min Rain = 0
KPG1 150544Z 03004KT 22/16 A2996 RMK A01 T02170157  RH  069%=      5-min Rain = 0
KPG1 150545Z 03003KT 22/15 A2996 RMK A01 T02170154  RH  068%=      5-min Rain = 0
KPG1 150546Z 05003KT 22/16 A2996 RMK A01 T02160155  RH  068%=      5-min Rain = 0
KPG1 150547Z 05004KT 22/16 A2996 RMK A01 T02150157  RH  069%=      5-min Rain = 0
KPG1 150548Z 04004KT 21/16 A2996 RMK A01 T02140157  RH  070%=      5-min Rain = 0
KPG1 150549Z 04003KT 21/16 A2996 RMK A01 T02130156  RH  070%=      5-min Rain = 0
KPG1 150550Z 05003KT 21/16 A2996 RMK A01 T02130156  RH  070%=      5-min Rain = 0
KPG1 150551Z 05003KT 21/16 A2996 RMK A01 T02120156  RH  070%=      5-min Rain = 0
KPG1 150552Z 04002KT 21/16 A2996 RMK A01 T02120156  RH  070%=      5-min Rain = 0
KPG1 150553Z 03002KT 21/16 A2996 RMK A01 T02130156  RH  070%=      5-min Rain = 0
KPG1 150554Z 03002KT 21/16 A2996 RMK A01 T02130155  RH  069%=      5-min Rain = 0
KPG1 150555Z 01001KT 21/16 A2996 RMK A01 T02140155  RH  069%=      5-min Rain = 0
KPG1 150556Z 03000KT 22/16 A2996 RMK A01 T02150155  RH  069%=      5-min Rain = 0
KPG1 150557Z 24001KT 22/16 A2996 RMK A01 T02170156  RH  068%=      5-min Rain = 0
KPG1 150558Z 26001KT 22/15 A2996 RMK A01 T02170153  RH  067%=      5-min Rain = 0
KPG1 150559Z 23002KT 22/15 A2996 RMK A01 T02190153  RH  066%=      5-min Rain = 0
KPG1 150600Z 19002KT 22/15 A2995 RMK A01 T02200147  RH  063%=      5-min Rain = 0
KPG1 150601Z 16002KT 22/15 A2995 RMK A01 T02230149  RH  063%=      5-min Rain = 0
KPG1 150602Z 16001KT 22/15 A2995 RMK A01 T02230153  RH  064%=      5-min Rain = 0
KPG1 150603Z 20002KT 22/15 A2995 RMK A01 T02230149  RH  063%=      5-min Rain = 0
KPG1 150604Z 22002KT 22/15 A2995 RMK A01 T02230149  RH  063%=      5-min Rain = 0
KPG1 150605Z 21002KT 22/15 A2995 RMK A01 T02230148  RH  062%=      5-min Rain = 0
KPG1 150606Z 19003KT 22/15 A2995 RMK A01 T02230145  RH  061%=      5-min Rain = 0
KPG1 150607Z 18004KT 22/14 A2995 RMK A01 T02240144  RH  061%=      5-min Rain = 0
KPG1 150608Z 19003KT 22/15 A2995 RMK A01 T02240146  RH  061%=      5-min Rain = 0
KPG1 150609Z 20003KT 22/15 A2995 RMK A01 T02230147  RH  062%=      5-min Rain = 0
KPG1 150610Z 22003KT 22/15 A2995 RMK A01 T02200146  RH  063%=      5-min Rain = 0
KPG1 150611Z 23004KT 22/15 A2995 RMK A01 T02180145  RH  063%=      5-min Rain = 0
KPG1 150612Z 22004KT 22/15 A2995 RMK A01 T02150146  RH  065%=      5-min Rain = 0
KPG1 150613Z 23004KT 21/15 A2996 RMK A01 T02130147  RH  066%=      5-min Rain = 0
KPG1 150614Z 23004KT 21/15 A2996 RMK A01 T02110146  RH  066%=      5-min Rain = 0
KPG1 150615Z 24003KT 21/15 A2996 RMK A01 T02100146  RH  067%=      5-min Rain = 0
KPG1 150616Z 26003KT 21/15 A2996 RMK A01 T02090146  RH  067%=      5-min Rain = 0
KPG1 150617Z 25003KT 21/15 A2996 RMK A01 T02090147  RH  068%=      5-min Rain = 0
KPG1 150618Z 23002KT 21/15 A2996 RMK A01 T02080147  RH  068%=      5-min Rain = 0
KPG1 150619Z 14002KT 21/15 A2996 RMK A01 T02070149  RH  069%=      5-min Rain = 0
KPG1 150620Z 09001KT 21/15 A2997 RMK A01 T02070150  RH  070%=      5-min Rain = 0
KPG1 150621Z 07001KT 21/15 A2997 RMK A01 T02060150  RH  070%=      5-min Rain = 0
KPG1 150622Z 07001KT 21/15 A2997 RMK A01 T02060149  RH  070%=      5-min Rain = 0
KPG1 150623Z 09002KT 21/15 A2997 RMK A01 T02070150  RH  070%=      5-min Rain = 0
KPG1 150624Z 07002KT 21/15 A2997 RMK A01 T02070151  RH  070%=      5-min Rain = 0
KPG1 150625Z 07003KT 21/15 A2997 RMK A01 T02070151  RH  070%=      5-min Rain = 0
KPG1 150626Z 07003KT 21/15 A2997 RMK A01 T02060151  RH  071%=      5-min Rain = 0
KPG1 150627Z 07002KT 21/15 A2997 RMK A01 T02050150  RH  071%=      5-min Rain = 0
KPG1 150628Z 07002KT 20/15 A2998 RMK A01 T02040148  RH  070%=      5-min Rain = 0
KPG1 150629Z 06002KT 20/15 A2998 RMK A01 T02020148  RH  071%=      5-min Rain = 0
KPG1 150630Z 06002KT 20/15 A2997 RMK A01 T02020148  RH  071%=      5-min Rain = 0
KPG1 150631Z 06002KT 20/15 A2997 RMK A01 T02020148  RH  071%=      5-min Rain = 0
KPG1 150632Z 06001KT 20/15 A2997 RMK A01 T02020150  RH  072%=      5-min Rain = 0
KPG1 150633Z 04001KT 20/15 A2997 RMK A01 T02030151  RH  072%=      5-min Rain = 0
KPG1 150634Z 34000KT 20/15 A2997 RMK A01 T02040152  RH  072%=      5-min Rain = 0
KPG1 150635Z 33000KT 21/15 A2997 RMK A01 T02060153  RH  072%=      5-min Rain = 0
KPG1 150636Z 36001KT 21/15 A2997 RMK A01 T02070153  RH  071%=      5-min Rain = 0
KPG1 150637Z 01000KT 21/15 A2997 RMK A01 T02090153  RH  070%=      5-min Rain = 0
KPG1 150638Z 05001KT 21/15 A2997 RMK A01 T02100151  RH  069%=      5-min Rain = 0
KPG1 150639Z 08001KT 21/15 A2997 RMK A01 T02110150  RH  068%=      5-min Rain = 0
KPG1 150640Z 07001KT 21/15 A2997 RMK A01 T02140147  RH  066%=      5-min Rain = 0
KPG1 150641Z 06001KT 22/15 A2997 RMK A01 T02160147  RH  065%=      5-min Rain = 0
KPG1 150642Z 03001KT 22/15 A2997 RMK A01 T02160149  RH  066%=      5-min Rain = 0
KPG1 150643Z 01001KT 21/15 A2997 RMK A01 T02130148  RH  067%=      5-min Rain = 0
KPG1 150644Z 01001KT 21/15 A2997 RMK A01 T02110148  RH  067%=      5-min Rain = 0
KPG1 150645Z 00001KT 21/15 A2997 RMK A01 T02080147  RH  068%=      5-min Rain = 0
KPG1 150646Z 36002KT 21/15 A2997 RMK A01 T02060146  RH  069%=      5-min Rain = 0
KPG1 150647Z 02001KT 21/15 A2997 RMK A01 T02060146  RH  069%=      5-min Rain = 0
KPG1 150648Z 00002KT 21/15 A2997 RMK A01 T02070146  RH  068%=      5-min Rain = 0
KPG1 150649Z 00001KT 21/15 A2997 RMK A01 T02090146  RH  067%=      5-min Rain = 0
KPG1 150650Z 35001KT 21/15 A2997 RMK A01 T02100146  RH  066%=      5-min Rain = 0
KPG1 150651Z 01001KT 21/15 A2997 RMK A01 T02100145  RH  066%=      5-min Rain = 0
KPG1 150652Z 03001KT 21/14 A2997 RMK A01 T02100144  RH  066%=      5-min Rain = 0
KPG1 150653Z 03001KT 21/14 A2997 RMK A01 T02080144  RH  066%=      5-min Rain = 0
KPG1 150654Z 05002KT 21/14 A2997 RMK A01 T02060143  RH  067%=      5-min Rain = 0
KPG1 150655Z 05003KT 20/14 A2997 RMK A01 T02030143  RH  069%=      5-min Rain = 0
KPG1 150656Z 05003KT 20/15 A2997 RMK A01 T02020145  RH  069%=      5-min Rain = 0
KPG1 150657Z 04003KT 20/14 A2997 RMK A01 T02020144  RH  069%=      5-min Rain = 0
KPG1 150658Z 04003KT 20/14 A2997 RMK A01 T02010143  RH  069%=      5-min Rain = 0
KPG1 150659Z 06004KT 20/14 A2997 RMK A01 T02000142  RH  069%=      5-min Rain = 0
KPG1 150700Z 05004KT 20/14 A2997 RMK A01 T02000141  RH  069%=      5-min Rain = 0
KPG1 150701Z 03003KT 20/14 A2997 RMK A01 T02010141  RH  069%=      5-min Rain = 0
KPG1 150702Z 03003KT 20/14 A2997 RMK A01 T02020140  RH  068%=      5-min Rain = 0
KPG1 150703Z 03004KT 20/14 A2997 RMK A01 T02030140  RH  067%=      5-min Rain = 0
KPG1 150704Z 04004KT 20/14 A2997 RMK A01 T02040140  RH  067%=      5-min Rain = 0
KPG1 150705Z 03003KT 21/14 A2997 RMK A01 T02050140  RH  066%=      5-min Rain = 0
KPG1 150706Z 03004KT 21/14 A2997 RMK A01 T02060139  RH  066%=      5-min Rain = 0
KPG1 150707Z 03005KT 21/14 A2997 RMK A01 T02060139  RH  065%=      5-min Rain = 0
KPG1 150708Z 04006KT 21/14 A2997 RMK A01 T02060139  RH  065%=      5-min Rain = 0
KPG1 150709Z 05007KT 21/14 A2997 RMK A01 T02050140  RH  066%=      5-min Rain = 0
KPG1 150710Z 05008KT 21/14 A2997 RMK A01 T02050140  RH  066%=      5-min Rain = 0
KPG1 150711Z 05008KT 21/14 A2997 RMK A01 T02060142  RH  067%=      5-min Rain = 0
KPG1 150712Z 06008KT 21/14 A2997 RMK A01 T02090144  RH  067%=      5-min Rain = 0
KPG1 150713Z 06007KT 21/15 A2997 RMK A01 T02100145  RH  066%=      5-min Rain = 0
KPG1 150714Z 06007KT 21/15 A2997 RMK A01 T02110146  RH  066%=      5-min Rain = 0
KPG1 150715Z 06007KT 21/15 A2997 RMK A01 T02120147  RH  067%=      5-min Rain = 0
KPG1 150716Z 07008KT 21/15 A2997 RMK A01 T02120148  RH  067%=      5-min Rain = 0
KPG1 150717Z 07008KT 21/15 A2997 RMK A01 T02120149  RH  067%=      5-min Rain = 0
KPG1 150718Z 06009KT 21/15 A2998 RMK A01 T02120150  RH  068%=      5-min Rain = 0
KPG1 150719Z 07009KT 21/15 A2998 RMK A01 T02120151  RH  068%=      5-min Rain = 0
KPG1 150720Z 06009KT 21/15 A2998 RMK A01 T02110151  RH  069%=      5-min Rain = 0
KPG1 150721Z 05008KT 21/15 A2998 RMK A01 T02100152  RH  070%=      5-min Rain = 0
KPG1 150722Z 06008KT 21/15 A2998 RMK A01 T02080152  RH  070%=      5-min Rain = 0
KPG1 150723Z 06010KT 21/15 A2998 RMK A01 T02080152  RH  070%=      5-min Rain = 0
KPG1 150724Z 06009KT 21/15 A2998 RMK A01 T02080152  RH  070%=      5-min Rain = 0
KPG1 150725Z 06010KT 21/15 A2998 RMK A01 T02090153  RH  070%=      5-min Rain = 0
KPG1 150726Z 06010KT 21/15 A2998 RMK A01 T02090153  RH  070%=      5-min Rain = 0
KPG1 150727Z 06011KT 21/15 A2998 RMK A01 T02090153  RH  071%=      5-min Rain = 0
KPG1 150728Z 07011KT 21/15 A2998 RMK A01 T02080154  RH  071%=      5-min Rain = 0
KPG1 150729Z 07011KT 21/15 A2998 RMK A01 T02080154  RH  071%=      5-min Rain = 0
KPG1 150730Z 07010KT 21/15 A2998 RMK A01 T02090154  RH  071%=      5-min Rain = 0
KPG1 150731Z 07010KT 21/16 A2998 RMK A01 T02090155  RH  071%=      5-min Rain = 0
KPG1 150732Z 07010KT 21/16 A2998 RMK A01 T02090155  RH  071%=      5-min Rain = 0
KPG1 150733Z 07010KT 21/16 A2998 RMK A01 T02080155  RH  071%=      5-min Rain = 0
KPG1 150734Z 07011KT 21/16 A2998 RMK A01 T02080155  RH  072%=      5-min Rain = 0
KPG1 150735Z 08012KT 21/16 A2997 RMK A01 T02070155  RH  072%=      5-min Rain = 0
KPG1 150736Z 07011KT 21/16 A2997 RMK A01 T02080155  RH  072%=      5-min Rain = 0
KPG1 150737Z 07010KT 21/16 A2997 RMK A01 T02090155  RH  071%=      5-min Rain = 0
KPG1 150738Z 07011KT 21/16 A2997 RMK A01 T02090156  RH  072%=      5-min Rain = 0
KPG1 150739Z 07010KT 21/16 A2997 RMK A01 T02090156  RH  072%=      5-min Rain = 0
KPG1 150740Z 07009KT 21/16 A2998 RMK A01 T02090156  RH  072%=      5-min Rain = 0
KPG1 150741Z 05009KT 21/16 A2998 RMK A01 T02100156  RH  071%=      5-min Rain = 0
KPG1 150742Z 06010KT 21/16 A2998 RMK A01 T02100156  RH  071%=      5-min Rain = 0
KPG1 150743Z 05010KT 21/16 A2998 RMK A01 T02100156  RH  071%=      5-min Rain = 0
KPG1 150744Z 05009KT 21/16 A2998 RMK A01 T02110156  RH  071%=      5-min Rain = 0
KPG1 150745Z 02009KT 21/16 A2998 RMK A01 T02100155  RH  071%=      5-min Rain = 0
KPG1 150746Z 02011KT 21/15 A2998 RMK A01 T02070153  RH  071%=      5-min Rain = 0
KPG1 150747Z 02011KT 20/15 A2998 RMK A01 T02040153  RH  073%=      5-min Rain = 0
KPG1 150748Z 03011KT 20/15 A2998 RMK A01 T02020153  RH  073%=      5-min Rain = 0
KPG1 150749Z 03011KT 20/15 A2998 RMK A01 T02010154  RH  074%=      5-min Rain = 0
KPG1 150750Z 03010KT 20/15 A2998 RMK A01 T02000154  RH  075%=      5-min Rain = 0
KPG1 150751Z 04010KT 20/15 A2998 RMK A01 T02000154  RH  075%=      5-min Rain = 0
KPG1 150752Z 04011KT 20/15 A2998 RMK A01 T02000154  RH  075%=      5-min Rain = 0
KPG1 150753Z 04009KT 20/16 A2998 RMK A01 T02000155  RH  075%=      5-min Rain = 0
KPG1 150754Z 04010KT 20/15 A2998 RMK A01 T02000154  RH  075%=      5-min Rain = 0
KPG1 150755Z 04010KT 20/16 A2998 RMK A01 T02010155  RH  074%=      5-min Rain = 0
KPG1 150756Z 04009KT 20/16 A2997 RMK A01 T02020155  RH  074%=      5-min Rain = 0
KPG1 150757Z 04009KT 20/16 A2997 RMK A01 T02020155  RH  074%=      5-min Rain = 0
KPG1 150758Z 04009KT 20/15 A2997 RMK A01 T02020154  RH  074%=      5-min Rain = 0
KPG1 150759Z 04009KT 20/15 A2997 RMK A01 T02030154  RH  074%=      5-min Rain = 0
KPG1 150800Z 04010KT 20/15 A2997 RMK A01 T02020154  RH  073%=      5-min Rain = 0
KPG1 150801Z 03009KT 20/15 A2997 RMK A01 T02030154  RH  073%=      5-min Rain = 0
KPG1 150802Z 03009KT 20/15 A2997 RMK A01 T02030154  RH  073%=      5-min Rain = 0
KPG1 150803Z 03009KT 20/15 A2997 RMK A01 T02030153  RH  073%=      5-min Rain = 0
KPG1 150804Z 03009KT 20/15 A2997 RMK A01 T02030153  RH  073%=      5-min Rain = 0
KPG1 150805Z 03008KT 20/15 A2997 RMK A01 T02030153  RH  073%=      5-min Rain = 0
KPG1 150806Z 02008KT 20/15 A2997 RMK A01 T02030153  RH  073%=      5-min Rain = 0
KPG1 150807Z 02008KT 21/15 A2997 RMK A01 T02050154  RH  073%=      5-min Rain = 0
KPG1 150808Z 02009KT 21/16 A2997 RMK A01 T02070155  RH  072%=      5-min Rain = 0
KPG1 150809Z 01010KT 21/16 A2997 RMK A01 T02090155  RH  071%=      5-min Rain = 0
KPG1 150810Z 02010KT 21/16 A2997 RMK A01 T02110155  RH  071%=      5-min Rain = 0
KPG1 150811Z 01011KT 21/16 A2997 RMK A01 T02110155  RH  070%=      5-min Rain = 0
KPG1 150812Z 02009KT 21/16 A2997 RMK A01 T02110156  RH  070%=      5-min Rain = 0
KPG1 150813Z 02009KT 21/16 A2997 RMK A01 T02120156  RH  071%=      5-min Rain = 0
KPG1 150814Z 03008KT 21/16 A2997 RMK A01 T02110156  RH  070%=      5-min Rain = 0
KPG1 150815Z 02009KT 21/16 A2997 RMK A01 T02100155  RH  070%=      5-min Rain = 0
KPG1 150816Z 01009KT 21/16 A2997 RMK A01 T02090156  RH  071%=      5-min Rain = 0
KPG1 150817Z 02009KT 21/16 A2997 RMK A01 T02100157  RH  072%=      5-min Rain = 0
KPG1 150818Z 02011KT 21/16 A2997 RMK A01 T02110158  RH  072%=      5-min Rain = 0
KPG1 150819Z 02010KT 21/16 A2997 RMK A01 T02120159  RH  072%=      5-min Rain = 0
KPG1 150820Z 03010KT 21/16 A2997 RMK A01 T02120158  RH  071%=      5-min Rain = 0
KPG1 150821Z 03010KT 21/16 A2998 RMK A01 T02130159  RH  071%=      5-min Rain = 0
KPG1 150822Z 02009KT 21/16 A2998 RMK A01 T02120158  RH  071%=      5-min Rain = 0
KPG1 150823Z 02009KT 21/16 A2997 RMK A01 T02120158  RH  071%=      5-min Rain = 0
KPG1 150824Z 02010KT 21/16 A2997 RMK A01 T02120159  RH  072%=      5-min Rain = 0
KPG1 150825Z 02010KT 21/16 A2997 RMK A01 T02110160  RH  072%=      5-min Rain = 0
KPG1 150826Z 01010KT 21/16 A2997 RMK A01 T02110160  RH  073%=      5-min Rain = 0
KPG1 150827Z 01009KT 21/16 A2997 RMK A01 T02110159  RH  072%=      5-min Rain = 0
KPG1 150828Z 01009KT 21/16 A2997 RMK A01 T02110159  RH  072%=      5-min Rain = 0
KPG1 150829Z 02009KT 21/16 A2997 RMK A01 T02110159  RH  072%=      5-min Rain = 0
KPG1 150830Z 03008KT 21/16 A2997 RMK A01 T02110159  RH  072%=      5-min Rain = 0
KPG1 150831Z 03010KT 21/16 A2997 RMK A01 T02110160  RH  073%=      5-min Rain = 0
KPG1 150832Z 04008KT 21/16 A2997 RMK A01 T02100159  RH  073%=      5-min Rain = 0
KPG1 150833Z 04008KT 21/16 A2997 RMK A01 T02080157  RH  072%=      5-min Rain = 0
KPG1 150834Z 03009KT 21/16 A2997 RMK A01 T02060156  RH  073%=      5-min Rain = 0
KPG1 150835Z 03010KT 21/16 A2997 RMK A01 T02050156  RH  074%=      5-min Rain = 0
KPG1 150836Z 03009KT 21/16 A2997 RMK A01 T02050157  RH  074%=      5-min Rain = 0
KPG1 150837Z 03008KT 21/16 A2997 RMK A01 T02050157  RH  074%=      5-min Rain = 0
KPG1 150838Z 04008KT 21/16 A2997 RMK A01 T02050157  RH  074%=      5-min Rain = 0
KPG1 150839Z 03009KT 21/16 A2997 RMK A01 T02050158  RH  075%=      5-min Rain = 0
KPG1 150840Z 03009KT 20/16 A2997 RMK A01 T02040158  RH  075%=      5-min Rain = 0
KPG1 150841Z 03009KT 20/16 A2997 RMK A01 T02040158  RH  075%=      5-min Rain = 0
KPG1 150842Z 03008KT 20/16 A2997 RMK A01 T02040158  RH  075%=      5-min Rain = 0
KPG1 150843Z 04008KT 20/16 A2997 RMK A01 T02040158  RH  075%=      5-min Rain = 0
KPG1 150844Z 04008KT 20/16 A2997 RMK A01 T02040158  RH  075%=      5-min Rain = 0
KPG1 150845Z 04008KT 21/16 A2997 RMK A01 T02050158  RH  074%=      5-min Rain = 0
KPG1 150846Z 04009KT 21/16 A2997 RMK A01 T02050158  RH  074%=      5-min Rain = 0
KPG1 150847Z 04009KT 21/16 A2997 RMK A01 T02050158  RH  074%=      5-min Rain = 0
KPG1 150848Z 04009KT 21/16 A2997 RMK A01 T02060158  RH  074%=      5-min Rain = 0
KPG1 150849Z 04010KT 21/16 A2997 RMK A01 T02060158  RH  074%=      5-min Rain = 0
KPG1 150850Z 04009KT 21/16 A2997 RMK A01 T02070158  RH  074%=      5-min Rain = 0
KPG1 150851Z 03007KT 21/16 A2997 RMK A01 T02070158  RH  073%=      5-min Rain = 0
KPG1 150852Z 03009KT 21/16 A2997 RMK A01 T02060157  RH  074%=      5-min Rain = 0
KPG1 150853Z 03009KT 21/16 A2997 RMK A01 T02050157  RH  074%=      5-min Rain = 0
KPG1 150854Z 03010KT 20/16 A2997 RMK A01 T02040157  RH  074%=      5-min Rain = 0
KPG1 150855Z 03011KT 20/16 A2997 RMK A01 T02040157  RH  074%=      5-min Rain = 0
KPG1 150856Z 03011KT 20/16 A2997 RMK A01 T02040156  RH  074%=      5-min Rain = 0
KPG1 150857Z 03011KT 20/16 A2997 RMK A01 T02040156  RH  074%=      5-min Rain = 0
KPG1 150858Z 03013KT 20/16 A2997 RMK A01 T02040156  RH  074%=      5-min Rain = 0
KPG1 150859Z 03013KT 20/15 A2997 RMK A01 T02040154  RH  073%=      5-min Rain = 0
KPG1 150900Z 03012KT 21/15 A2997 RMK A01 T02050154  RH  072%=      5-min Rain = 0
KPG1 150901Z 03012KT 21/15 A2997 RMK A01 T02050154  RH  073%=      5-min Rain = 0
KPG1 150902Z 03011KT 21/15 A2997 RMK A01 T02050154  RH  073%=      5-min Rain = 0
KPG1 150903Z 02011KT 20/15 A2997 RMK A01 T02040153  RH  073%=      5-min Rain = 0
KPG1 150904Z 03010KT 20/15 A2997 RMK A01 T02030152  RH  072%=      5-min Rain = 0
KPG1 150905Z 03011KT 20/15 A2997 RMK A01 T02020152  RH  073%=      5-min Rain = 0
KPG1 150906Z 03011KT 20/15 A2997 RMK A01 T02020152  RH  073%=      5-min Rain = 0
KPG1 150907Z 03011KT 20/15 A2997 RMK A01 T02010151  RH  073%=      5-min Rain = 0
KPG1 150908Z 03010KT 20/15 A2997 RMK A01 T02010151  RH  073%=      5-min Rain = 0
KPG1 150909Z 02012KT 20/15 A2997 RMK A01 T02000150  RH  073%=      5-min Rain = 0
KPG1 150910Z 02012KT 20/15 A2997 RMK A01 T02010148  RH  071%=      5-min Rain = 0
KPG1 150911Z 01010KT 20/15 A2997 RMK A01 T02030147  RH  070%=      5-min Rain = 0
KPG1 150912Z 00012KT 20/15 A2997 RMK A01 T02040147  RH  070%=      5-min Rain = 0
KPG1 150913Z 35011KT 20/15 A2997 RMK A01 T02040146  RH  069%=      5-min Rain = 0
KPG1 150914Z 01010KT 21/15 A2997 RMK A01 T02050145  RH  069%=      5-min Rain = 0
KPG1 150915Z 02010KT 21/15 A2997 RMK A01 T02050145  RH  068%=      5-min Rain = 0
KPG1 150916Z 01010KT 21/15 A2997 RMK A01 T02050145  RH  068%=      5-min Rain = 0
KPG1 150917Z 00012KT 21/15 A2997 RMK A01 T02050145  RH  068%=      5-min Rain = 0
KPG1 150918Z 01011KT 21/15 A2997 RMK A01 T02050145  RH  069%=      5-min Rain = 0
KPG1 150919Z 00010KT 21/15 A2997 RMK A01 T02050145  RH  069%=      5-min Rain = 0
KPG1 150920Z 00011KT 21/15 A2997 RMK A01 T02050145  RH  069%=      5-min Rain = 0
KPG1 150921Z 00012KT 21/15 A2997 RMK A01 T02050145  RH  068%=      5-min Rain = 0
KPG1 150922Z 00012KT 21/14 A2997 RMK A01 T02050144  RH  068%=      5-min Rain = 0
KPG1 150923Z 00012KT 21/14 A2997 RMK A01 T02050144  RH  068%=      5-min Rain = 0
KPG1 150924Z 00011KT 21/15 A2997 RMK A01 T02060145  RH  068%=      5-min Rain = 0
KPG1 150925Z 02010KT 21/15 A2997 RMK A01 T02060146  RH  068%=      5-min Rain = 0
KPG1 150926Z 01013KT 21/15 A2997 RMK A01 T02060146  RH  068%=      5-min Rain = 0
KPG1 150927Z 00011KT 21/15 A2997 RMK A01 T02060145  RH  068%=      5-min Rain = 0
KPG1 150928Z 00011KT 21/15 A2997 RMK A01 T02050149  RH  070%=      5-min Rain = 0
KPG1 150929Z 01012KT 21/15 A2997 RMK A01 T02050147  RH  069%=      5-min Rain = 0
KPG1 150930Z 01012KT 21/15 A2997 RMK A01 T02050145  RH  068%=      5-min Rain = 0
KPG1 150931Z 02012KT 21/15 A2997 RMK A01 T02050145  RH  068%=      5-min Rain = 0
KPG1 150932Z 02011KT 21/15 A2997 RMK A01 T02050145  RH  068%=      5-min Rain = 0
KPG1 150933Z 01010KT 21/14 A2997 RMK A01 T02050144  RH  068%=      5-min Rain = 0
KPG1 150934Z 02011KT 21/15 A2997 RMK A01 T02050145  RH  068%=      5-min Rain = 0
KPG1 150935Z 02012KT 21/15 A2997 RMK A01 T02050145  RH  068%=      5-min Rain = 0
KPG1 150936Z 02011KT 21/15 A2997 RMK A01 T02050145  RH  068%=      5-min Rain = 0
KPG1 150937Z 02010KT 21/15 A2997 RMK A01 T02050145  RH  068%=      5-min Rain = 0
KPG1 150938Z 02010KT 21/15 A2997 RMK A01 T02050145  RH  068%=      5-min Rain = 0
KPG1 150939Z 02010KT 21/15 A2997 RMK A01 T02050145  RH  069%=      5-min Rain = 0
KPG1 150940Z 02010KT 21/15 A2997 RMK A01 T02050146  RH  069%=      5-min Rain = 0
KPG1 150941Z 02010KT 21/15 A2997 RMK A01 T02050146  RH  069%=      5-min Rain = 0
KPG1 150942Z 02011KT 21/15 A2997 RMK A01 T02050147  RH  069%=      5-min Rain = 0
KPG1 150943Z 02011KT 21/15 A2997 RMK A01 T02050147  RH  069%=      5-min Rain = 0
KPG1 150944Z 02010KT 21/15 A2997 RMK A01 T02050147  RH  069%=      5-min Rain = 0
KPG1 150945Z 02009KT 21/15 A2997 RMK A01 T02050148  RH  070%=      5-min Rain = 0
KPG1 150946Z 02009KT 21/15 A2997 RMK A01 T02050147  RH  069%=      5-min Rain = 0
KPG1 150947Z 03008KT 20/15 A2997 RMK A01 T02040146  RH  069%=      5-min Rain = 0
KPG1 150948Z 03009KT 20/14 A2997 RMK A01 T02020144  RH  069%=      5-min Rain = 0
KPG1 150949Z 03009KT 20/14 A2997 RMK A01 T02010144  RH  070%=      5-min Rain = 0
KPG1 150950Z 02008KT 20/15 A2997 RMK A01 T02000145  RH  070%=      5-min Rain = 0
KPG1 150956Z 01008KT 20/15 A2998 RMK A01 T02030149  RH  071%=      5-min Rain = 0
KPG1 150957Z 01009KT 20/15 A2998 RMK A01 T02030149  RH  071%=      5-min Rain = 0
KPG1 150958Z 02009KT 20/15 A2998 RMK A01 T02030152  RH  073%=      5-min Rain = 0
KPG1 150959Z 01009KT 20/15 A2998 RMK A01 T02030153  RH  073%=      5-min Rain = 0
KPG1 151000Z 02007KT 20/16 A2998 RMK A01 T02030155  RH  074%=      5-min Rain = 0
KPG1 151001Z 02010KT 20/16 A2998 RMK A01 T02030158  RH  075%=      5-min Rain = 0
KPG1 151002Z 02010KT 20/16 A2998 RMK A01 T02030157  RH  075%=      5-min Rain = 0
KPG1 151003Z 03008KT 20/16 A2998 RMK A01 T02030157  RH  075%=      5-min Rain = 0
KPG1 151004Z 03007KT 20/16 A2998 RMK A01 T02020155  RH  074%=      5-min Rain = 0
KPG1 151005Z 03007KT 20/15 A2998 RMK A01 T02000152  RH  073%=      5-min Rain = 0
KPG1 151006Z 03007KT 20/15 A2998 RMK A01 T01990150  RH  074%=      5-min Rain = 0
KPG1 151007Z 02007KT 20/15 A2998 RMK A01 T01980151  RH  074%=      5-min Rain = 0
KPG1 151008Z 02007KT 20/15 A2998 RMK A01 T01970154  RH  076%=      5-min Rain = 0
KPG1 151009Z 02007KT 20/16 A2998 RMK A01 T01970156  RH  077%=      5-min Rain = 0
KPG1 151010Z 02007KT 20/16 A2998 RMK A01 T01970158  RH  078%=      5-min Rain = 0
KPG1 151011Z 03007KT 20/16 A2998 RMK A01 T01970158  RH  078%=      5-min Rain = 0
KPG1 151012Z 03008KT 20/16 A2998 RMK A01 T01970158  RH  078%=      5-min Rain = 0
KPG1 151013Z 03009KT 20/16 A2998 RMK A01 T01970159  RH  078%=      5-min Rain = 0
KPG1 151014Z 03008KT 20/16 A2998 RMK A01 T01970158  RH  078%=      5-min Rain = 0
KPG1 151015Z 03009KT 20/16 A2998 RMK A01 T01970159  RH  078%=      5-min Rain = 0
KPG1 151016Z 03009KT 20/16 A2998 RMK A01 T01970158  RH  078%=      5-min Rain = 0
KPG1 151017Z 04008KT 20/16 A2998 RMK A01 T01970157  RH  078%=      5-min Rain = 0
KPG1 151018Z 04008KT 20/16 A2998 RMK A01 T01960156  RH  078%=      5-min Rain = 0
KPG1 151019Z 05007KT 20/16 A2998 RMK A01 T01960157  RH  078%=      5-min Rain = 0
KPG1 151020Z 05008KT 20/16 A2998 RMK A01 T01950159  RH  080%=      5-min Rain = 0
KPG1 151021Z 05007KT 20/16 A2998 RMK A01 T01960161  RH  080%=      5-min Rain = 0
KPG1 151022Z 05007KT 20/16 A2998 RMK A01 T01960162  RH  081%=      5-min Rain = 0
KPG1 151023Z 05007KT 20/16 A2998 RMK A01 T01970163  RH  081%=      5-min Rain = 0
KPG1 151024Z 05008KT 20/16 A2998 RMK A01 T01970164  RH  081%=      5-min Rain = 0
KPG1 151025Z 05008KT 20/17 A2998 RMK A01 T01970165  RH  082%=      5-min Rain = 0
KPG1 151026Z 05007KT 20/17 A2998 RMK A01 T01970166  RH  082%=      5-min Rain = 0
KPG1 151027Z 06007KT 20/17 A2998 RMK A01 T01970166  RH  082%=      5-min Rain = 0
KPG1 151028Z 06009KT 20/17 A2998 RMK A01 T01970167  RH  083%=      5-min Rain = 0
KPG1 151029Z 06009KT 20/17 A2998 RMK A01 T01970168  RH  083%=      5-min Rain = 0
KPG1 151030Z 06009KT 20/17 A2998 RMK A01 T01980170  RH  084%=      5-min Rain = 0
KPG1 151031Z 06009KT 20/17 A2998 RMK A01 T01980170  RH  084%=      5-min Rain = 0
KPG1 151032Z 06009KT 20/17 A2998 RMK A01 T01990170  RH  084%=      5-min Rain = 0
KPG1 151033Z 06009KT 20/17 A2998 RMK A01 T01990170  RH  084%=      5-min Rain = 0
KPG1 151034Z 06009KT 20/17 A2998 RMK A01 T01980171  RH  084%=      5-min Rain = 0
KPG1 151035Z 06008KT 20/17 A2998 RMK A01 T01980171  RH  084%=      5-min Rain = 0
KPG1 151036Z 06008KT 20/17 A2998 RMK A01 T01980171  RH  084%=      5-min Rain = 0
KPG1 151037Z 06008KT 20/17 A2997 RMK A01 T01980171  RH  084%=      5-min Rain = 0
KPG1 151038Z 06009KT 20/17 A2997 RMK A01 T01980171  RH  084%=      5-min Rain = 0
KPG1 151039Z 06008KT 20/17 A2997 RMK A01 T01980171  RH  084%=      5-min Rain = 0
KPG1 151040Z 06008KT 20/17 A2997 RMK A01 T01980172  RH  085%=      5-min Rain = 0
KPG1 151041Z 06008KT 20/17 A2997 RMK A01 T01980172  RH  085%=      5-min Rain = 0
KPG1 151042Z 07008KT 20/17 A2997 RMK A01 T01980172  RH  085%=      5-min Rain = 0
KPG1 151043Z 06008KT 20/17 A2997 RMK A01 T01980172  RH  085%=      5-min Rain = 0
KPG1 151044Z 06008KT 20/17 A2998 RMK A01 T01980171  RH  084%=      5-min Rain = 0
KPG1 151045Z 06008KT 20/17 A2998 RMK A01 T01980170  RH  084%=      5-min Rain = 0
KPG1 151046Z 06007KT 20/17 A2998 RMK A01 T01980170  RH  084%=      5-min Rain = 0
KPG1 151047Z 06007KT 20/17 A2998 RMK A01 T01990171  RH  084%=      5-min Rain = 0
KPG1 151048Z 06006KT 20/17 A2998 RMK A01 T01990171  RH  084%=      5-min Rain = 0
KPG1 151049Z 06007KT 20/17 A2998 RMK A01 T01990170  RH  084%=      5-min Rain = 0
KPG1 151050Z 06006KT 20/17 A2998 RMK A01 T01990170  RH  083%=      5-min Rain = 0
KPG1 151051Z 06006KT 20/17 A2998 RMK A01 T01990170  RH  083%=      5-min Rain = 0
KPG1 151052Z 04004KT 20/17 A2998 RMK A01 T01990169  RH  083%=      5-min Rain = 0
KPG1 151053Z 01004KT 20/17 A2998 RMK A01 T01980169  RH  084%=      5-min Rain = 0
KPG1 151054Z 00004KT 20/17 A2998 RMK A01 T01960169  RH  084%=      5-min Rain = 0
KPG1 151055Z 00004KT 20/17 A2998 RMK A01 T01960170  RH  085%=      5-min Rain = 0
KPG1 151056Z 00004KT 20/17 A2998 RMK A01 T01960169  RH  085%=      5-min Rain = 0
KPG1 151057Z 01004KT 20/17 A2998 RMK A01 T01950169  RH  085%=      5-min Rain = 0
KPG1 151058Z 01004KT 20/17 A2998 RMK A01 T01950169  RH  085%=      5-min Rain = 0
KPG1 151059Z 01004KT 20/17 A2998 RMK A01 T01960169  RH  085%=      5-min Rain = 0
KPG1 151100Z 01004KT 20/17 A2998 RMK A01 T01950169  RH  084%=      5-min Rain = 0
KPG1 151101Z 01003KT 20/17 A2998 RMK A01 T01960169  RH  084%=      5-min Rain = 0
KPG1 151102Z 01003KT 20/17 A2998 RMK A01 T01960169  RH  084%=      5-min Rain = 0
KPG1 151103Z 01004KT 20/17 A2998 RMK A01 T01960168  RH  084%=      5-min Rain = 0
KPG1 151104Z 00003KT 20/17 A2998 RMK A01 T01960168  RH  084%=      5-min Rain = 0
KPG1 151105Z 35003KT 20/17 A2998 RMK A01 T01950168  RH  084%=      5-min Rain = 0
KPG1 151106Z 32003KT 19/17 A2998 RMK A01 T01940167  RH  084%=      5-min Rain = 0
KPG1 151107Z 31003KT 19/16 A2998 RMK A01 T01940164  RH  083%=      5-min Rain = 0
KPG1 151108Z 30003KT 19/16 A2998 RMK A01 T01940161  RH  081%=      5-min Rain = 0
KPG1 151109Z 30003KT 20/16 A2998 RMK A01 T01950160  RH  080%=      5-min Rain = 0
KPG1 151110Z 31003KT 20/16 A2998 RMK A01 T01950160  RH  080%=      5-min Rain = 0
KPG1 151111Z 30004KT 20/16 A2998 RMK A01 T01950158  RH  079%=      5-min Rain = 0
KPG1 151112Z 30003KT 20/16 A2998 RMK A01 T01950157  RH  079%=      5-min Rain = 0
KPG1 151113Z 30004KT 19/16 A2998 RMK A01 T01940157  RH  079%=      5-min Rain = 0
KPG1 151114Z 29004KT 20/16 A2998 RMK A01 T01950156  RH  078%=      5-min Rain = 0
KPG1 151115Z 29003KT 20/16 A2998 RMK A01 T01950155  RH  078%=      5-min Rain = 0
KPG1 151116Z 29003KT 19/16 A2998 RMK A01 T01940155  RH  078%=      5-min Rain = 0
KPG1 151117Z 30003KT 19/16 A2998 RMK A01 T01940155  RH  078%=      5-min Rain = 0
KPG1 151118Z 29002KT 19/16 A2998 RMK A01 T01930155  RH  078%=      5-min Rain = 0
KPG1 151119Z 30002KT 19/16 A2998 RMK A01 T01930155  RH  078%=      5-min Rain = 0
KPG1 151120Z 30001KT 19/16 A2998 RMK A01 T01930155  RH  078%=      5-min Rain = 0
KPG1 151121Z 30000KT 19/16 A2998 RMK A01 T01930155  RH  078%=      5-min Rain = 0
KPG1 151122Z 00000KT 19/16 A2998 RMK A01 T01930155  RH  078%=      5-min Rain = 0
KPG1 151123Z 32000KT 19/15 A2998 RMK A01 T01930154  RH  078%=      5-min Rain = 0
KPG1 151124Z 34001KT 19/15 A2998 RMK A01 T01920154  RH  079%=      5-min Rain = 0
KPG1 151125Z 30001KT 19/16 A2998 RMK A01 T01920155  RH  079%=      5-min Rain = 0
KPG1 151126Z 30001KT 19/16 A2998 RMK A01 T01910156  RH  080%=      5-min Rain = 0
KPG1 151127Z 30001KT 19/16 A2998 RMK A01 T01910155  RH  080%=      5-min Rain = 0
KPG1 151128Z 31001KT 19/16 A2998 RMK A01 T01900156  RH  080%=      5-min Rain = 0
KPG1 151129Z 00000KT 19/16 A2998 RMK A01 T01900157  RH  081%=      5-min Rain = 0
KPG1 151130Z 00000KT 19/16 A2998 RMK A01 T01900158  RH  082%=      5-min Rain = 0
KPG1 151131Z 01000KT 19/16 A2998 RMK A01 T01900160  RH  083%=      5-min Rain = 0
KPG1 151132Z 01000KT 19/16 A2998 RMK A01 T01890162  RH  084%=      5-min Rain = 0
KPG1 151133Z 03001KT 19/16 A2998 RMK A01 T01890161  RH  084%=      5-min Rain = 0
KPG1 151134Z 05001KT 19/16 A2998 RMK A01 T01880161  RH  084%=      5-min Rain = 0
KPG1 151135Z 05001KT 19/16 A2998 RMK A01 T01870159  RH  084%=      5-min Rain = 0
KPG1 151136Z 05001KT 19/16 A2998 RMK A01 T01850156  RH  083%=      5-min Rain = 0
KPG1 151137Z 04000KT 19/16 A2998 RMK A01 T01850159  RH  085%=      5-min Rain = 0
KPG1 151138Z 00000KT 19/16 A2998 RMK A01 T01850163  RH  087%=      5-min Rain = 0
KPG1 151139Z 00000KT 19/17 A2998 RMK A01 T01860165  RH  088%=      5-min Rain = 0
KPG1 151140Z 00000KT 19/16 A2998 RMK A01 T01860164  RH  087%=      5-min Rain = 0
KPG1 151141Z 02000KT 19/16 A2998 RMK A01 T01860162  RH  086%=      5-min Rain = 0
KPG1 151142Z 01001KT 19/16 A2998 RMK A01 T01870162  RH  086%=      5-min Rain = 0
KPG1 151143Z 00001KT 19/16 A2998 RMK A01 T01860163  RH  086%=      5-min Rain = 0
KPG1 151144Z 34001KT 19/16 A2998 RMK A01 T01860162  RH  086%=      5-min Rain = 0
KPG1 151145Z 34001KT 19/16 A2999 RMK A01 T01860164  RH  087%=      5-min Rain = 0
KPG1 151146Z 33001KT 19/17 A2999 RMK A01 T01870165  RH  087%=      5-min Rain = 0
KPG1 151147Z 33001KT 19/16 A2999 RMK A01 T01880164  RH  086%=      5-min Rain = 0
KPG1 151148Z 33002KT 19/16 A2999 RMK A01 T01880163  RH  086%=      5-min Rain = 0
KPG1 151149Z 33002KT 19/16 A2999 RMK A01 T01870164  RH  086%=      5-min Rain = 0
KPG1 151150Z 32002KT 19/17 A2999 RMK A01 T01880166  RH  087%=      5-min Rain = 0
KPG1 151151Z 32002KT 19/17 A2999 RMK A01 T01900166  RH  086%=      5-min Rain = 0
KPG1 151152Z 33002KT 19/17 A2999 RMK A01 T01910166  RH  085%=      5-min Rain = 0
KPG1 151153Z 34002KT 19/17 A2999 RMK A01 T01910166  RH  085%=      5-min Rain = 0
KPG1 151154Z 34003KT 19/17 A2999 RMK A01 T01910165  RH  085%=      5-min Rain = 0
KPG1 151155Z 33003KT 19/17 A2999 RMK A01 T01910165  RH  085%=      5-min Rain = 0
KPG1 151156Z 33003KT 19/17 A2999 RMK A01 T01910166  RH  085%=      5-min Rain = 0
KPG1 151157Z 33003KT 19/17 A2999 RMK A01 T01910166  RH  085%=      5-min Rain = 0
KPG1 151158Z 33003KT 19/17 A2999 RMK A01 T01920167  RH  086%=      5-min Rain = 0
KPG1 151159Z 32003KT 19/17 A2999 RMK A01 T01920167  RH  086%=      5-min Rain = 0
KPG1 151200Z 33004KT 19/17 A2999 RMK A01 T01920168  RH  086%=      5-min Rain = 0
KPG1 151201Z 33004KT 19/17 A2999 RMK A01 T01920168  RH  086%=      5-min Rain = 0
KPG1 151202Z 33004KT 19/17 A2999 RMK A01 T01920169  RH  086%=      5-min Rain = 0
KPG1 151203Z 33004KT 19/17 A2999 RMK A01 T01930169  RH  086%=      5-min Rain = 0
KPG1 151204Z 32004KT 19/17 A2999 RMK A01 T01930170  RH  086%=      5-min Rain = 0
KPG1 151205Z 33003KT 19/17 A2999 RMK A01 T01930170  RH  086%=      5-min Rain = 0
KPG1 151206Z 33003KT 19/17 A2999 RMK A01 T01930170  RH  086%=      5-min Rain = 0
KPG1 151207Z 33004KT 19/17 A2999 RMK A01 T01930171  RH  087%=      5-min Rain = 0
KPG1 151208Z 31003KT 19/17 A2999 RMK A01 T01940169  RH  086%=      5-min Rain = 0
KPG1 151209Z 30002KT 19/16 A2999 RMK A01 T01940164  RH  083%=      5-min Rain = 0
KPG1 151210Z 32002KT 20/16 A2999 RMK A01 T01950163  RH  082%=      5-min Rain = 0
KPG1 151211Z 32002KT 20/16 A2999 RMK A01 T01960164  RH  082%=      5-min Rain = 0
KPG1 151212Z 31002KT 20/17 A30 RMK A01 T01950169  RH  084%=      5-min Rain = 0
KPG1 151213Z 32002KT 20/17 A30 RMK A01 T01950170  RH  085%=      5-min Rain = 0
KPG1 151214Z 33002KT 20/17 A30 RMK A01 T01960171  RH  086%=      5-min Rain = 0
KPG1 151215Z 33001KT 20/17 A30 RMK A01 T01960171  RH  086%=      5-min Rain = 0
KPG1 151216Z 31001KT 20/17 A30 RMK A01 T01950168  RH  085%=      5-min Rain = 0
KPG1 151217Z 28000KT 19/17 A30 RMK A01 T01940165  RH  083%=      5-min Rain = 0
KPG1 151218Z 32001KT 19/17 A30 RMK A01 T01940168  RH  085%=      5-min Rain = 0
KPG1 151219Z 00000KT 19/17 A30 RMK A01 T01940167  RH  084%=      5-min Rain = 0
KPG1 151220Z 27001KT 19/17 A30 RMK A01 T01940167  RH  084%=      5-min Rain = 0
KPG1 151221Z 28001KT 19/17 A30 RMK A01 T01920165  RH  084%=      5-min Rain = 0
KPG1 151222Z 29000KT 19/16 A30 RMK A01 T01900163  RH  084%=      5-min Rain = 0
KPG1 151223Z 05000KT 19/16 A30 RMK A01 T01880162  RH  085%=      5-min Rain = 0
KPG1 151224Z 02000KT 19/16 A30 RMK A01 T01870161  RH  085%=      5-min Rain = 0
KPG1 151225Z 06000KT 19/16 A30 RMK A01 T01860161  RH  085%=      5-min Rain = 0
KPG1 151226Z 07001KT 19/16 A30 RMK A01 T01850160  RH  086%=      5-min Rain = 0
KPG1 151227Z 08001KT 18/16 A30 RMK A01 T01840161  RH  086%=      5-min Rain = 0
KPG1 151228Z 09001KT 18/16 A30 RMK A01 T01830161  RH  087%=      5-min Rain = 0
KPG1 151229Z 10000KT 18/16 A30 RMK A01 T01830161  RH  087%=      5-min Rain = 0
KPG1 151230Z 12001KT 18/16 A30 RMK A01 T01830163  RH  088%=      5-min Rain = 0
KPG1 151231Z 16001KT 18/16 A30 RMK A01 T01830164  RH  089%=      5-min Rain = 0
KPG1 151232Z 18001KT 18/17 A30 RMK A01 T01840165  RH  089%=      5-min Rain = 0
KPG1 151233Z 16001KT 19/16 A30 RMK A01 T01850163  RH  087%=      5-min Rain = 0
KPG1 151234Z 17001KT 19/16 A30 RMK A01 T01850161  RH  086%=      5-min Rain = 0
KPG1 151235Z 18001KT 19/16 A30 RMK A01 T01850160  RH  085%=      5-min Rain = 0
KPG1 151236Z 18001KT 19/16 A30 RMK A01 T01860159  RH  085%=      5-min Rain = 0
KPG1 151237Z 17001KT 19/16 A30 RMK A01 T01870159  RH  084%=      5-min Rain = 0
KPG1 151238Z 17001KT 19/16 A30 RMK A01 T01880160  RH  084%=      5-min Rain = 0
KPG1 151239Z 17002KT 19/16 A30 RMK A01 T01880160  RH  083%=      5-min Rain = 0
KPG1 151240Z 17002KT 19/16 A30 RMK A01 T01890160  RH  083%=      5-min Rain = 0
KPG1 151241Z 17002KT 19/16 A30 RMK A01 T01890160  RH  083%=      5-min Rain = 0
KPG1 151242Z 17002KT 19/16 A30 RMK A01 T01900160  RH  083%=      5-min Rain = 0
KPG1 151243Z 17002KT 19/16 A30 RMK A01 T01910159  RH  082%=      5-min Rain = 0
KPG1 151244Z 17002KT 19/16 A30 RMK A01 T01910157  RH  081%=      5-min Rain = 0
KPG1 151245Z 18002KT 19/16 A30 RMK A01 T01920157  RH  080%=      5-min Rain = 0
KPG1 151246Z 19002KT 19/16 A30 RMK A01 T01930157  RH  079%=      5-min Rain = 0
KPG1 151247Z 19002KT 19/16 A30 RMK A01 T01940157  RH  079%=      5-min Rain = 0
KPG1 151248Z 19003KT 20/16 A30 RMK A01 T01950157  RH  079%=      5-min Rain = 0
KPG1 151249Z 19003KT 20/16 A30 RMK A01 T01950157  RH  079%=      5-min Rain = 0
KPG1 151250Z 18003KT 20/16 A30 RMK A01 T01960157  RH  079%=      5-min Rain = 0
KPG1 151251Z 18002KT 20/16 A3001 RMK A01 T01960158  RH  079%=      5-min Rain = 0
KPG1 151252Z 17003KT 20/16 A3001 RMK A01 T01950155  RH  078%=      5-min Rain = 0
KPG1 151253Z 17002KT 19/15 A3001 RMK A01 T01930152  RH  077%=      5-min Rain = 0
KPG1 151254Z 17001KT 19/15 A3001 RMK A01 T01910152  RH  078%=      5-min Rain = 0
KPG1 151255Z 17001KT 19/15 A3001 RMK A01 T01910151  RH  078%=      5-min Rain = 0
KPG1 151256Z 18002KT 19/15 A3001 RMK A01 T01910151  RH  078%=      5-min Rain = 0
KPG1 151257Z 19002KT 19/15 A3001 RMK A01 T01900151  RH  078%=      5-min Rain = 0
KPG1 151258Z 19002KT 19/15 A3001 RMK A01 T01900151  RH  078%=      5-min Rain = 0
KPG1 151259Z 18002KT 19/15 A3001 RMK A01 T01900151  RH  078%=      5-min Rain = 0
KPG1 151300Z 18003KT 19/15 A3001 RMK A01 T01900150  RH  078%=      5-min Rain = 0
KPG1 151301Z 18003KT 19/15 A3001 RMK A01 T01900149  RH  077%=      5-min Rain = 0
KPG1 151302Z 18003KT 19/15 A3001 RMK A01 T01900148  RH  076%=      5-min Rain = 0
KPG1 151303Z 20002KT 19/15 A3001 RMK A01 T01900147  RH  076%=      5-min Rain = 0
KPG1 151304Z 20003KT 19/15 A3001 RMK A01 T01900146  RH  075%=      5-min Rain = 0
KPG1 151305Z 21002KT 19/15 A3001 RMK A01 T01900145  RH  075%=      5-min Rain = 0
KPG1 151306Z 21003KT 19/15 A3001 RMK A01 T01900145  RH  075%=      5-min Rain = 0
KPG1 151307Z 21002KT 19/15 A3001 RMK A01 T01900145  RH  075%=      5-min Rain = 0
KPG1 151308Z 21002KT 19/15 A3001 RMK A01 T01900145  RH  075%=      5-min Rain = 0
KPG1 151309Z 21002KT 19/15 A3001 RMK A01 T01900145  RH  075%=      5-min Rain = 0
KPG1 151310Z 20002KT 19/14 A3001 RMK A01 T01900144  RH  074%=      5-min Rain = 0
KPG1 151311Z 20002KT 19/15 A3001 RMK A01 T01910145  RH  075%=      5-min Rain = 0
KPG1 151312Z 19002KT 19/14 A3001 RMK A01 T01920144  RH  074%=      5-min Rain = 0
KPG1 151313Z 19002KT 19/14 A3001 RMK A01 T01920142  RH  073%=      5-min Rain = 0
KPG1 151314Z 19003KT 19/14 A3001 RMK A01 T01920141  RH  072%=      5-min Rain = 0
KPG1 151315Z 19003KT 19/14 A3002 RMK A01 T01930140  RH  072%=      5-min Rain = 0
KPG1 151316Z 19003KT 19/14 A3002 RMK A01 T01930140  RH  071%=      5-min Rain = 0
KPG1 151317Z 19003KT 19/14 A3002 RMK A01 T01930140  RH  071%=      5-min Rain = 0
KPG1 151318Z 19003KT 19/14 A3002 RMK A01 T01930140  RH  071%=      5-min Rain = 0
KPG1 151319Z 18004KT 19/14 A3002 RMK A01 T01930139  RH  071%=      5-min Rain = 0
KPG1 151320Z 18003KT 19/14 A3002 RMK A01 T01940140  RH  071%=      5-min Rain = 0
KPG1 151321Z 16003KT 20/14 A3002 RMK A01 T01950139  RH  070%=      5-min Rain = 0
KPG1 151322Z 17003KT 20/14 A3002 RMK A01 T01960139  RH  070%=      5-min Rain = 0
KPG1 151323Z 18003KT 20/14 A3002 RMK A01 T01960141  RH  070%=      5-min Rain = 0
KPG1 151324Z 19003KT 20/14 A3002 RMK A01 T01970142  RH  070%=      5-min Rain = 0
KPG1 151325Z 19003KT 20/14 A3002 RMK A01 T01970143  RH  071%=      5-min Rain = 0
KPG1 151326Z 19003KT 20/14 A3002 RMK A01 T01980142  RH  070%=      5-min Rain = 0
KPG1 151327Z 18003KT 20/14 A3002 RMK A01 T01980140  RH  069%=      5-min Rain = 0
KPG1 151328Z 19003KT 20/14 A3002 RMK A01 T01980140  RH  069%=      5-min Rain = 0
KPG1 151329Z 19003KT 20/14 A3002 RMK A01 T01970140  RH  069%=      5-min Rain = 0
KPG1 151330Z 18004KT 20/14 A3002 RMK A01 T01970140  RH  070%=      5-min Rain = 0
KPG1 151331Z 17003KT 20/14 A3002 RMK A01 T01970140  RH  069%=      5-min Rain = 0
KPG1 151332Z 19003KT 20/14 A3002 RMK A01 T01990141  RH  069%=      5-min Rain = 0
KPG1 151333Z 19003KT 20/14 A3002 RMK A01 T02000142  RH  069%=      5-min Rain = 0
KPG1 151334Z 18003KT 20/14 A3002 RMK A01 T02000141  RH  069%=      5-min Rain = 0
KPG1 151335Z 17003KT 20/14 A3002 RMK A01 T02010141  RH  069%=      5-min Rain = 0
KPG1 151336Z 19003KT 20/14 A3002 RMK A01 T02020143  RH  069%=      5-min Rain = 0
KPG1 151337Z 19004KT 20/15 A3002 RMK A01 T02040145  RH  069%=      5-min Rain = 0
KPG1 151338Z 20003KT 20/15 A3002 RMK A01 T02040145  RH  069%=      5-min Rain = 0
KPG1 151339Z 19004KT 20/15 A3002 RMK A01 T02040145  RH  069%=      5-min Rain = 0
KPG1 151340Z 19004KT 21/15 A3002 RMK A01 T02050146  RH  069%=      5-min Rain = 0
KPG1 151341Z 20004KT 21/15 A3002 RMK A01 T02070148  RH  069%=      5-min Rain = 0
KPG1 151342Z 20004KT 21/15 A3002 RMK A01 T02090148  RH  068%=      5-min Rain = 0
KPG1 151343Z 21004KT 21/15 A3002 RMK A01 T02100149  RH  068%=      5-min Rain = 0
KPG1 151344Z 19004KT 21/15 A3002 RMK A01 T02120149  RH  067%=      5-min Rain = 0
KPG1 151345Z 21005KT 21/15 A3002 RMK A01 T02120149  RH  067%=      5-min Rain = 0
KPG1 151346Z 22005KT 21/15 A3002 RMK A01 T02130149  RH  067%=      5-min Rain = 0
KPG1 151347Z 22006KT 21/15 A3002 RMK A01 T02140149  RH  067%=      5-min Rain = 0
KPG1 151348Z 22006KT 21/15 A3002 RMK A01 T02140149  RH  066%=      5-min Rain = 0
KPG1 151349Z 22006KT 21/15 A3002 RMK A01 T02140149  RH  066%=      5-min Rain = 0
KPG1 151350Z 23006KT 22/15 A3002 RMK A01 T02150149  RH  066%=      5-min Rain = 0
KPG1 151351Z 23006KT 22/15 A3002 RMK A01 T02150149  RH  066%=      5-min Rain = 0
KPG1 151352Z 23006KT 22/15 A3002 RMK A01 T02160149  RH  066%=      5-min Rain = 0
KPG1 151353Z 23007KT 22/15 A3002 RMK A01 T02160149  RH  066%=      5-min Rain = 0
KPG1 151354Z 25005KT 22/15 A3002 RMK A01 T02170149  RH  065%=      5-min Rain = 0
KPG1 151355Z 23004KT 22/15 A3002 RMK A01 T02170149  RH  065%=      5-min Rain = 0
KPG1 151356Z 24006KT 22/15 A3002 RMK A01 T02190149  RH  065%=      5-min Rain = 0
KPG1 151357Z 24005KT 22/15 A3002 RMK A01 T02180149  RH  065%=      5-min Rain = 0
KPG1 151358Z 22005KT 22/15 A3002 RMK A01 T02180150  RH  065%=      5-min Rain = 0
KPG1 151359Z 23006KT 22/15 A3002 RMK A01 T02180151  RH  065%=      5-min Rain = 0
KPG1 151400Z 24006KT 22/15 A3002 RMK A01 T02190151  RH  065%=      5-min Rain = 0
KPG1 151401Z 24005KT 22/15 A3002 RMK A01 T02200151  RH  065%=      5-min Rain = 0
KPG1 151402Z 23004KT 22/15 A3002 RMK A01 T02190151  RH  065%=      5-min Rain = 0
KPG1 151403Z 23005KT 22/15 A3002 RMK A01 T02200150  RH  065%=      5-min Rain = 0
KPG1 151404Z 24005KT 22/15 A3002 RMK A01 T02210150  RH  064%=      5-min Rain = 0
KPG1 151405Z 24005KT 22/15 A3002 RMK A01 T02210150  RH  064%=      5-min Rain = 0
KPG1 151406Z 22004KT 22/15 A3002 RMK A01 T02210150  RH  064%=      5-min Rain = 0
KPG1 151407Z 22004KT 22/15 A3002 RMK A01 T02210150  RH  064%=      5-min Rain = 0
KPG1 151408Z 21004KT 22/15 A3002 RMK A01 T02230150  RH  064%=      5-min Rain = 0
KPG1 151409Z 24005KT 22/15 A3002 RMK A01 T02240150  RH  063%=      5-min Rain = 0
KPG1 151410Z 24004KT 23/15 A3002 RMK A01 T02250150  RH  063%=      5-min Rain = 0
KPG1 151411Z 24004KT 23/15 A3002 RMK A01 T02260151  RH  062%=      5-min Rain = 0
KPG1 151412Z 24004KT 23/15 A3002 RMK A01 T02270151  RH  062%=      5-min Rain = 0
KPG1 151413Z 23005KT 23/15 A3002 RMK A01 T02280151  RH  062%=      5-min Rain = 0
KPG1 151414Z 25005KT 23/15 A3002 RMK A01 T02290151  RH  061%=      5-min Rain = 0
KPG1 151415Z 25004KT 23/15 A3002 RMK A01 T02300151  RH  061%=      5-min Rain = 0
KPG1 151416Z 21005KT 23/15 A3002 RMK A01 T02300152  RH  061%=      5-min Rain = 0
KPG1 151417Z 21006KT 23/15 A3002 RMK A01 T02310152  RH  061%=      5-min Rain = 0
KPG1 151418Z 21006KT 23/15 A3002 RMK A01 T02310152  RH  061%=      5-min Rain = 0
KPG1 151419Z 22007KT 23/15 A3002 RMK A01 T02310151  RH  061%=      5-min Rain = 0
KPG1 151420Z 23006KT 23/15 A3002 RMK A01 T02310151  RH  061%=      5-min Rain = 0
KPG1 151421Z 22005KT 23/15 A3002 RMK A01 T02300151  RH  061%=      5-min Rain = 0
KPG1 151422Z 19005KT 23/15 A3002 RMK A01 T02300151  RH  061%=      5-min Rain = 0
KPG1 151423Z 21005KT 23/15 A3002 RMK A01 T02320152  RH  061%=      5-min Rain = 0
KPG1 151424Z 21006KT 24/15 A3002 RMK A01 T02350153  RH  060%=      5-min Rain = 0
KPG1 151425Z 21006KT 24/15 A3002 RMK A01 T02360153  RH  059%=      5-min Rain = 0
KPG1 151426Z 21006KT 24/15 A3002 RMK A01 T02360151  RH  059%=      5-min Rain = 0
KPG1 151427Z 21006KT 24/15 A3002 RMK A01 T02360151  RH  059%=      5-min Rain = 0
KPG1 151428Z 21005KT 24/15 A3002 RMK A01 T02360151  RH  059%=      5-min Rain = 0
KPG1 151429Z 22005KT 24/15 A3002 RMK A01 T02360151  RH  059%=      5-min Rain = 0
KPG1 151430Z 22007KT 24/15 A3002 RMK A01 T02360151  RH  059%=      5-min Rain = 0
KPG1 151431Z 21006KT 24/15 A3002 RMK A01 T02380150  RH  058%=      5-min Rain = 0
KPG1 151432Z 22005KT 24/15 A3002 RMK A01 T02380150  RH  058%=      5-min Rain = 0
KPG1 151433Z 21006KT 24/15 A3002 RMK A01 T02410149  RH  057%=      5-min Rain = 0
KPG1 151434Z 22005KT 24/15 A3002 RMK A01 T02410149  RH  056%=      5-min Rain = 0
KPG1 151435Z 23006KT 24/15 A3002 RMK A01 T02400148  RH  056%=      5-min Rain = 0
KPG1 151436Z 23006KT 24/15 A3002 RMK A01 T02410147  RH  056%=      5-min Rain = 0
KPG1 151437Z 24006KT 24/15 A3002 RMK A01 T02410147  RH  056%=      5-min Rain = 0
KPG1 151438Z 24006KT 24/15 A3002 RMK A01 T02410147  RH  056%=      5-min Rain = 0
KPG1 151439Z 24005KT 24/15 A3002 RMK A01 T02400147  RH  056%=      5-min Rain = 0
KPG1 151440Z 25005KT 24/15 A3002 RMK A01 T02400148  RH  056%=      5-min Rain = 0
KPG1 151441Z 21004KT 24/15 A3002 RMK A01 T02390147  RH  056%=      5-min Rain = 0
KPG1 151442Z 21006KT 24/15 A3002 RMK A01 T02400147  RH  056%=      5-min Rain = 0
KPG1 151443Z 22005KT 24/15 A3002 RMK A01 T02420148  RH  055%=      5-min Rain = 0
KPG1 151444Z 24007KT 24/15 A3002 RMK A01 T02440147  RH  055%=      5-min Rain = 0
KPG1 151445Z 25006KT 25/15 A3002 RMK A01 T02450147  RH  054%=      5-min Rain = 0
KPG1 151446Z 24006KT 24/15 A3002 RMK A01 T02440147  RH  055%=      5-min Rain = 0
KPG1 151447Z 24006KT 24/15 A3002 RMK A01 T02430146  RH  055%=      5-min Rain = 0
KPG1 151448Z 24005KT 25/15 A3002 RMK A01 T02450147  RH  054%=      5-min Rain = 0
KPG1 151449Z 23006KT 25/15 A3002 RMK A01 T02470146  RH  053%=      5-min Rain = 0
KPG1 151450Z 24005KT 25/15 A3002 RMK A01 T02500147  RH  053%=      5-min Rain = 0
KPG1 151451Z 25007KT 25/15 A3002 RMK A01 T02530147  RH  052%=      5-min Rain = 0
KPG1 151452Z 24005KT 25/15 A3002 RMK A01 T02530147  RH  052%=      5-min Rain = 0
KPG1 151453Z 21006KT 25/15 A3002 RMK A01 T02530147  RH  052%=      5-min Rain = 0
KPG1 151454Z 21007KT 25/15 A3002 RMK A01 T02530146  RH  052%=      5-min Rain = 0
KPG1 151455Z 21007KT 25/15 A3002 RMK A01 T02530146  RH  051%=      5-min Rain = 0
KPG1 151456Z 20006KT 25/15 A3002 RMK A01 T02520145  RH  051%=      5-min Rain = 0
KPG1 151457Z 21006KT 25/14 A3002 RMK A01 T02510144  RH  052%=      5-min Rain = 0
KPG1 151458Z 20007KT 25/14 A3002 RMK A01 T02500144  RH  052%=      5-min Rain = 0
KPG1 151459Z 19005KT 25/15 A3002 RMK A01 T02490145  RH  052%=      5-min Rain = 0
KPG1 151500Z 21005KT 25/15 A3002 RMK A01 T02500145  RH  052%=      5-min Rain = 0
KPG1 151501Z 21003KT 25/14 A3002 RMK A01 T02510144  RH  052%=      5-min Rain = 0
KPG1 151502Z 21004KT 25/15 A3002 RMK A01 T02510145  RH  051%=      5-min Rain = 0
KPG1 151503Z 20003KT 25/14 A3002 RMK A01 T02520144  RH  051%=      5-min Rain = 0
KPG1 151504Z 21004KT 25/14 A3002 RMK A01 T02520144  RH  051%=      5-min Rain = 0
KPG1 151505Z 20004KT 25/14 A3002 RMK A01 T02530144  RH  051%=      5-min Rain = 0
KPG1 151506Z 20006KT 26/15 A3002 RMK A01 T02550145  RH  051%=      5-min Rain = 0
KPG1 151507Z 23006KT 26/15 A3002 RMK A01 T02600145  RH  049%=      5-min Rain = 0
KPG1 151508Z 22005KT 26/15 A3002 RMK A01 T02600145  RH  049%=      5-min Rain = 0
KPG1 151509Z 23006KT 26/15 A3002 RMK A01 T02600145  RH  049%=      5-min Rain = 0
KPG1 151510Z 24003KT 26/15 A3002 RMK A01 T02600145  RH  049%=      5-min Rain = 0
KPG1 151511Z 22003KT 26/15 A3002 RMK A01 T02590145  RH  049%=      5-min Rain = 0
KPG1 151512Z 19003KT 26/14 A3002 RMK A01 T02570144  RH  050%=      5-min Rain = 0
KPG1 151513Z 18005KT 26/14 A3002 RMK A01 T02570144  RH  050%=      5-min Rain = 0
KPG1 151514Z 19003KT 26/14 A3002 RMK A01 T02590144  RH  049%=      5-min Rain = 0
KPG1 151515Z 23004KT 26/14 A3002 RMK A01 T02600144  RH  049%=      5-min Rain = 0
KPG1 151516Z 22002KT 26/15 A3002 RMK A01 T02600145  RH  049%=      5-min Rain = 0
KPG1 151517Z 22004KT 26/15 A3002 RMK A01 T02610145  RH  049%=      5-min Rain = 0
KPG1 151518Z 22007KT 26/14 A3002 RMK A01 T02630144  RH  048%=      5-min Rain = 0
KPG1 151519Z 21008KT 26/14 A3002 RMK A01 T02640144  RH  047%=      5-min Rain = 0
KPG1 151520Z 20007KT 26/14 A3002 RMK A01 T02630144  RH  048%=      5-min Rain = 0
KPG1 151521Z 21009KT 26/14 A3002 RMK A01 T02620143  RH  048%=      5-min Rain = 0
KPG1 151522Z 21009KT 26/14 A3002 RMK A01 T02620143  RH  048%=      5-min Rain = 0
KPG1 151523Z 21007KT 26/14 A3002 RMK A01 T02610142  RH  048%=      5-min Rain = 0
KPG1 151524Z 20006KT 26/14 A3002 RMK A01 T02610142  RH  048%=      5-min Rain = 0
KPG1 151525Z 19005KT 26/14 A3002 RMK A01 T02620142  RH  048%=      5-min Rain = 0
KPG1 151526Z 18005KT 26/14 A3002 RMK A01 T02620142  RH  048%=      5-min Rain = 0
KPG1 151527Z 18005KT 26/14 A3002 RMK A01 T02640142  RH  047%=      5-min Rain = 0
KPG1 151528Z 17005KT 27/14 A3002 RMK A01 T02670143  RH  047%=      5-min Rain = 0
KPG1 151529Z 17004KT 27/14 A3002 RMK A01 T02680143  RH  046%=      5-min Rain = 0
KPG1 151530Z 19003KT 27/14 A3002 RMK A01 T02670143  RH  046%=      5-min Rain = 0
KPG1 151531Z 20006KT 27/14 A3002 RMK A01 T02670142  RH  046%=      5-min Rain = 0
KPG1 151532Z 20007KT 27/14 A3002 RMK A01 T02690143  RH  046%=      5-min Rain = 0
KPG1 151533Z 22006KT 27/14 A3002 RMK A01 T02710142  RH  045%=      5-min Rain = 0
KPG1 151534Z 23006KT 27/14 A3002 RMK A01 T02710142  RH  045%=      5-min Rain = 0
KPG1 151535Z 23007KT 27/14 A3002 RMK A01 T02710142  RH  045%=      5-min Rain = 0
KPG1 151536Z 23006KT 27/14 A3002 RMK A01 T02710142  RH  045%=      5-min Rain = 0
KPG1 151537Z 22006KT 27/14 A3002 RMK A01 T02700142  RH  045%=      5-min Rain = 0
KPG1 151538Z 23004KT 27/14 A3002 RMK A01 T02700142  RH  045%=      5-min Rain = 0
KPG1 151539Z 21005KT 27/14 A3002 RMK A01 T02730143  RH  045%=      5-min Rain = 0
KPG1 151540Z 20005KT 28/14 A3002 RMK A01 T02750143  RH  044%=      5-min Rain = 0
KPG1 151541Z 20006KT 28/14 A3002 RMK A01 T02750143  RH  044%=      5-min Rain = 0
KPG1 151542Z 22006KT 27/14 A3002 RMK A01 T02740142  RH  044%=      5-min Rain = 0
KPG1 151543Z 22005KT 27/14 A3002 RMK A01 T02730143  RH  045%=      5-min Rain = 0
KPG1 151544Z 22005KT 27/14 A3002 RMK A01 T02740142  RH  044%=      5-min Rain = 0
KPG1 151545Z 24004KT 28/14 A3002 RMK A01 T02750142  RH  044%=      5-min Rain = 0
KPG1 151546Z 22006KT 27/14 A3002 RMK A01 T02740143  RH  045%=      5-min Rain = 0
KPG1 151547Z 21007KT 28/14 A3002 RMK A01 T02760142  RH  044%=      5-min Rain = 0
KPG1 151548Z 22006KT 28/14 A3002 RMK A01 T02760141  RH  043%=      5-min Rain = 0
KPG1 151549Z 21009KT 28/14 A3002 RMK A01 T02760142  RH  044%=      5-min Rain = 0
KPG1 151550Z 22007KT 28/14 A3002 RMK A01 T02780141  RH  043%=      5-min Rain = 0
KPG1 151551Z 19009KT 28/14 A3002 RMK A01 T02810142  RH  042%=      5-min Rain = 0
KPG1 151552Z 20009KT 28/14 A3002 RMK A01 T02830141  RH  042%=      5-min Rain = 0
KPG1 151553Z 22009KT 28/14 A3002 RMK A01 T02830142  RH  042%=      5-min Rain = 0
KPG1 151554Z 22007KT 28/14 A3002 RMK A01 T02810141  RH  042%=      5-min Rain = 0
KPG1 151555Z 21008KT 28/14 A3002 RMK A01 T02800141  RH  042%=      5-min Rain = 0
KPG1 151556Z 21008KT 28/14 A3002 RMK A01 T02800141  RH  042%=      5-min Rain = 0
KPG1 151557Z 19006KT 28/14 A3002 RMK A01 T02800141  RH  043%=      5-min Rain = 0
KPG1 151558Z 18006KT 28/14 A3002 RMK A01 T02810141  RH  042%=      5-min Rain = 0
KPG1 151559Z 19009KT 28/14 A3002 RMK A01 T02820141  RH  042%=      5-min Rain = 0
KPG1 151600Z 19009KT 28/14 A3002 RMK A01 T02840141  RH  042%=      5-min Rain = 0
KPG1 151601Z 20009KT 29/14 A3002 RMK A01 T02860141  RH  041%=      5-min Rain = 0
KPG1 151602Z 21008KT 29/14 A3002 RMK A01 T02850141  RH  041%=      5-min Rain = 0
KPG1 151603Z 19009KT 29/14 A3002 RMK A01 T02850141  RH  041%=      5-min Rain = 0
KPG1 151604Z 20010KT 29/14 A3001 RMK A01 T02850141  RH  041%=      5-min Rain = 0
KPG1 151605Z 22006KT 29/14 A3002 RMK A01 T02850140  RH  041%=      5-min Rain = 0
KPG1 151606Z 20005KT 29/14 A3002 RMK A01 T02850141  RH  041%=      5-min Rain = 0
KPG1 151607Z 21005KT 29/14 A3002 RMK A01 T02850141  RH  041%=      5-min Rain = 0
KPG1 151608Z 19007KT 28/14 A3002 RMK A01 T02840140  RH  041%=      5-min Rain = 0
KPG1 151609Z 19007KT 28/14 A3001 RMK A01 T02840140  RH  041%=      5-min Rain = 0
KPG1 151610Z 20007KT 29/14 A3001 RMK A01 T02870141  RH  041%=      5-min Rain = 0
KPG1 151611Z 20008KT 29/14 A3001 RMK A01 T02910141  RH  040%=      5-min Rain = 0
KPG1 151612Z 22009KT 29/14 A3001 RMK A01 T02940142  RH  039%=      5-min Rain = 0
KPG1 151613Z 21007KT 29/14 A3001 RMK A01 T02940141  RH  039%=      5-min Rain = 0
KPG1 151614Z 21004KT 29/14 A3001 RMK A01 T02930141  RH  040%=      5-min Rain = 0
KPG1 151615Z 23006KT 29/14 A3001 RMK A01 T02940141  RH  039%=      5-min Rain = 0
KPG1 151616Z 22007KT 29/14 A3001 RMK A01 T02940140  RH  039%=      5-min Rain = 0
KPG1 151617Z 23006KT 29/14 A3001 RMK A01 T02890139  RH  040%=      5-min Rain = 0
KPG1 151618Z 22007KT 29/14 A3001 RMK A01 T02860139  RH  041%=      5-min Rain = 0
KPG1 151619Z 21004KT 29/14 A3001 RMK A01 T02850139  RH  041%=      5-min Rain = 0
KPG1 151620Z 20005KT 28/14 A3001 RMK A01 T02840139  RH  041%=      5-min Rain = 0
KPG1 151621Z 21010KT 29/14 A3001 RMK A01 T02870140  RH  041%=      5-min Rain = 0
KPG1 151622Z 21008KT 29/14 A3001 RMK A01 T02900140  RH  040%=      5-min Rain = 0
KPG1 151623Z 22009KT 29/14 A3001 RMK A01 T02920140  RH  039%=      5-min Rain = 0
KPG1 151624Z 22010KT 29/14 A3001 RMK A01 T02920139  RH  039%=      5-min Rain = 0
KPG1 151625Z 23008KT 29/14 A3001 RMK A01 T02920140  RH  039%=      5-min Rain = 0
KPG1 151626Z 23008KT 29/14 A3001 RMK A01 T02930140  RH  039%=      5-min Rain = 0
KPG1 151627Z 23007KT 29/14 A3001 RMK A01 T02920139  RH  039%=      5-min Rain = 0
KPG1 151628Z 22007KT 29/14 A3001 RMK A01 T02910139  RH  039%=      5-min Rain = 0
KPG1 151629Z 23006KT 29/14 A3001 RMK A01 T02900140  RH  040%=      5-min Rain = 0
KPG1 151630Z 22009KT 29/14 A3001 RMK A01 T02940140  RH  039%=      5-min Rain = 0
KPG1 151631Z 22007KT 30/14 A3001 RMK A01 T02950139  RH  038%=      5-min Rain = 0
KPG1 151632Z 23004G9KT 29/14 A3001 RMK A01 T02930139  RH  039%=      5-min Rain = 0
KPG1 151633Z 24005KT 29/14 A3001 RMK A01 T02940139  RH  039%=      5-min Rain = 0
KPG1 151634Z 21008KT 29/14 A3001 RMK A01 T02930139  RH  039%=      5-min Rain = 0
KPG1 151635Z 23007KT 29/14 A3001 RMK A01 T02930139  RH  039%=      5-min Rain = 0
KPG1 151636Z 21005KT 29/14 A3001 RMK A01 T02940139  RH  039%=      5-min Rain = 0
KPG1 151637Z 21006KT 30/14 A3001 RMK A01 T02970139  RH  038%=      5-min Rain = 0
KPG1 151638Z 23006KT 30/14 A3001 RMK A01 T02990139  RH  038%=      5-min Rain = 0
KPG1 151639Z 23005KT 30/14 A3001 RMK A01 T02990139  RH  038%=      5-min Rain = 0
KPG1 151640Z 20005KT 30/14 A3001 RMK A01 T02990139  RH  038%=      5-min Rain = 0
KPG1 151641Z 24003KT 30/14 A3001 RMK A01 T02970139  RH  038%=      5-min Rain = 0
KPG1 151642Z 25005KT 30/14 A30 RMK A01 T02980139  RH  038%=      5-min Rain = 0
KPG1 151643Z 26002KT 30/14 A30 RMK A01 T02990138  RH  037%=      5-min Rain = 0
KPG1 151644Z 21002KT 30/14 A30 RMK A01 T02990139  RH  038%=      5-min Rain = 0
KPG1 151645Z 18004KT 30/14 A30 RMK A01 T03000139  RH  037%=      5-min Rain = 0
KPG1 151646Z 20009KT 31/14 A30 RMK A01 T03050140  RH  037%=      5-min Rain = 0
KPG1 151647Z 20008KT 31/14 A30 RMK A01 T03070139  RH  036%=      5-min Rain = 0
KPG1 151648Z 20004KT 31/14 A30 RMK A01 T03050139  RH  036%=      5-min Rain = 0
KPG1 151649Z 20004KT 30/14 A30 RMK A01 T03040139  RH  037%=      5-min Rain = 0
KPG1 151650Z 20004KT 30/14 A30 RMK A01 T03040140  RH  037%=      5-min Rain = 0
KPG1 151651Z 20006KT 31/14 A30 RMK A01 T03070140  RH  036%=      5-min Rain = 0
KPG1 151652Z 20005KT 31/14 A30 RMK A01 T03090139  RH  036%=      5-min Rain = 0
KPG1 151653Z 23007KT 31/14 A30 RMK A01 T03100140  RH  035%=      5-min Rain = 0
KPG1 151654Z 22008KT 31/14 A30 RMK A01 T03090139  RH  036%=      5-min Rain = 0
KPG1 151655Z 19008KT 31/14 A30 RMK A01 T03070139  RH  036%=      5-min Rain = 0
KPG1 151656Z 18009KT 31/14 A30 RMK A01 T03120139  RH  035%=      5-min Rain = 0
KPG1 151657Z 18010KT 32/14 A30 RMK A01 T03170139  RH  034%=      5-min Rain = 0
KPG1 151658Z 21012G18KT 32/14 A30 RMK A01 T03180139  RH  034%=      5-min Rain = 0
KPG1 151659Z 22008KT 32/14 A30 RMK A01 T03200140  RH  034%=      5-min Rain = 0
KPG1 151700Z 22012KT 32/14 A30 RMK A01 T03220140  RH  033%=      5-min Rain = 0
KPG1 151701Z 22010KT 32/14 A30 RMK A01 T03190139  RH  033%=      5-min Rain = 0
KPG1 151702Z 22010KT 32/14 A30 RMK A01 T03170139  RH  034%=      5-min Rain = 0
KPG1 151703Z 23008KT 32/14 A30 RMK A01 T03150139  RH  034%=      5-min Rain = 0
KPG1 151704Z 23007KT 32/14 A30 RMK A01 T03150139  RH  034%=      5-min Rain = 0
KPG1 151705Z 23009KT 32/14 A30 RMK A01 T03170138  RH  034%=      5-min Rain = 0
KPG1 151706Z 23008KT 32/14 A30 RMK A01 T03170139  RH  034%=      5-min Rain = 0
KPG1 151707Z 20010KT 32/14 A30 RMK A01 T03190139  RH  034%=      5-min Rain = 0
KPG1 151708Z 19009KT 32/14 A30 RMK A01 T03200139  RH  033%=      5-min Rain = 0
KPG1 151709Z 19007KT 32/14 A30 RMK A01 T03230139  RH  033%=      5-min Rain = 0
KPG1 151710Z 20007KT 33/14 A30 RMK A01 T03260139  RH  032%=      5-min Rain = 0
KPG1 151711Z 19008KT 33/14 A30 RMK A01 T03260139  RH  032%=      5-min Rain = 0
KPG1 151712Z 24014KT 32/14 A30 RMK A01 T03230139  RH  033%=      5-min Rain = 0
KPG1 151713Z 23010KT 32/14 A30 RMK A01 T03200138  RH  033%=      5-min Rain = 0
KPG1 151714Z 22007KT 32/14 A30 RMK A01 T03170138  RH  034%=      5-min Rain = 0
KPG1 151715Z 23008KT 32/14 A30 RMK A01 T03150138  RH  034%=      5-min Rain = 0
KPG1 151716Z 24008KT 32/14 A30 RMK A01 T03150137  RH  034%=      5-min Rain = 0
KPG1 151717Z 23008KT 31/14 A30 RMK A01 T03140137  RH  034%=      5-min Rain = 0
KPG1 151718Z 22007KT 31/14 A30 RMK A01 T03120137  RH  034%=      5-min Rain = 0
KPG1 151719Z 23010KT 31/14 A30 RMK A01 T03130137  RH  034%=      5-min Rain = 0
KPG1 151720Z 23010KT 32/14 A2999 RMK A01 T03180138  RH  033%=      5-min Rain = 0
KPG1 151721Z 23010KT 32/14 A2999 RMK A01 T03210138  RH  033%=      5-min Rain = 0
KPG1 151722Z 23010KT 32/14 A2999 RMK A01 T03220138  RH  033%=      5-min Rain = 0
KPG1 151723Z 22008KT 32/14 A2999 RMK A01 T03240138  RH  032%=      5-min Rain = 0
KPG1 151724Z 20010KT 33/14 A2999 RMK A01 T03260139  RH  032%=      5-min Rain = 0
KPG1 151725Z 19011KT 33/14 A2999 RMK A01 T03280138  RH  032%=      5-min Rain = 0
KPG1 151726Z 19010KT 33/14 A2999 RMK A01 T03270138  RH  032%=      5-min Rain = 0
KPG1 151727Z 20006KT 33/14 A2999 RMK A01 T03260138  RH  032%=      5-min Rain = 0
KPG1 151728Z 20006G11KT 32/14 A2999 RMK A01 T03230137  RH  032%=      5-min Rain = 0
KPG1 151729Z 21010KT 32/14 A2999 RMK A01 T03210138  RH  033%=      5-min Rain = 0
KPG1 151730Z 21009KT 32/14 A2999 RMK A01 T03210138  RH  033%=      5-min Rain = 0
KPG1 151731Z 21012KT 32/14 A2999 RMK A01 T03200139  RH  033%=      5-min Rain = 0
KPG1 151732Z 21010KT 32/14 A2999 RMK A01 T03230139  RH  033%=      5-min Rain = 0
KPG1 151733Z 22009KT 33/14 A2999 RMK A01 T03250139  RH  032%=      5-min Rain = 0
KPG1 151734Z 21009KT 33/14 A2999 RMK A01 T03280139  RH  032%=      5-min Rain = 0
KPG1 151735Z 21004KT 33/14 A2999 RMK A01 T03260138  RH  032%=      5-min Rain = 0
KPG1 151736Z 23007KT 32/14 A2999 RMK A01 T03230139  RH  033%=      5-min Rain = 0
KPG1 151737Z 22007KT 33/14 A2999 RMK A01 T03260140  RH  032%=      5-min Rain = 0
KPG1 151738Z 20009KT 33/14 A2999 RMK A01 T03300139  RH  031%=      5-min Rain = 0
KPG1 151739Z 23007KT 33/14 A2999 RMK A01 T03280139  RH  032%=      5-min Rain = 0
KPG1 151740Z 23006KT 33/14 A2999 RMK A01 T03280139  RH  032%=      5-min Rain = 0
KPG1 151741Z 22008G13KT 33/14 A2999 RMK A01 T03290139  RH  032%=      5-min Rain = 0
KPG1 151742Z 20012KT 33/14 A2998 RMK A01 T03290138  RH  032%=      5-min Rain = 0
KPG1 151743Z 20011KT 33/14 A2998 RMK A01 T03280137  RH  031%=      5-min Rain = 0
KPG1 151744Z 22008KT 33/14 A2999 RMK A01 T03280138  RH  032%=      5-min Rain = 0
KPG1 151745Z 22007KT 33/14 A2998 RMK A01 T03280138  RH  032%=      5-min Rain = 0
KPG1 151746Z 25006KT 33/14 A2998 RMK A01 T03310138  RH  031%=      5-min Rain = 0
KPG1 151747Z 25007KT 33/14 A2998 RMK A01 T03310138  RH  031%=      5-min Rain = 0
KPG1 151748Z 23007KT 33/14 A2998 RMK A01 T03300139  RH  032%=      5-min Rain = 0
KPG1 151749Z 21010KT 33/14 A2998 RMK A01 T03300138  RH  031%=      5-min Rain = 0
KPG1 151750Z 21010KT 33/14 A2998 RMK A01 T03300139  RH  032%=      5-min Rain = 0
KPG1 151751Z 21009KT 33/14 A2998 RMK A01 T03290139  RH  032%=      5-min Rain = 0
KPG1 151752Z 20010KT 33/14 A2998 RMK A01 T03300139  RH  031%=      5-min Rain = 0
KPG1 151753Z 20008KT 33/14 A2998 RMK A01 T03290138  RH  031%=      5-min Rain = 0
KPG1 151754Z 21007KT 33/14 A2998 RMK A01 T03280137  RH  031%=      5-min Rain = 0
KPG1 151755Z 22009KT 33/14 A2998 RMK A01 T03270137  RH  032%=      5-min Rain = 0
KPG1 151756Z 21008KT 33/14 A2998 RMK A01 T03270137  RH  032%=      5-min Rain = 0
KPG1 151757Z 22009KT 33/14 A2998 RMK A01 T03270137  RH  032%=      5-min Rain = 0
KPG1 151758Z 22010KT 33/14 A2998 RMK A01 T03310136  RH  031%=      5-min Rain = 0
KPG1 151759Z 24009KT 33/14 A2998 RMK A01 T03340136  RH  030%=      5-min Rain = 0
KPG1 151800Z 20008KT 34/14 A2998 RMK A01 T03350137  RH  030%=      5-min Rain = 0
KPG1 151801Z 20008KT 34/14 A2998 RMK A01 T03370135  RH  030%=      5-min Rain = 0
KPG1 151802Z 21004KT 33/14 A2998 RMK A01 T03340135  RH  030%=      5-min Rain = 0
KPG1 151803Z 20006G12KT 33/14 A2998 RMK A01 T03320135  RH  030%=      5-min Rain = 0
KPG1 151804Z 25013KT 34/13 A2998 RMK A01 T03350134  RH  030%=      5-min Rain = 0
KPG1 151805Z 23010KT 34/13 A2998 RMK A01 T03380132  RH  029%=      5-min Rain = 0
KPG1 151806Z 23008KT 34/13 A2998 RMK A01 T03360132  RH  029%=      5-min Rain = 0
KPG1 151807Z 24009KT 34/13 A2997 RMK A01 T03350133  RH  030%=      5-min Rain = 0
KPG1 151808Z 23010KT 34/13 A2997 RMK A01 T03380131  RH  028%=      5-min Rain = 0
KPG1 151809Z 23009KT 34/13 A2997 RMK A01 T03400129  RH  028%=      5-min Rain = 0
KPG1 151810Z 22007KT 34/13 A2998 RMK A01 T03400130  RH  028%=      5-min Rain = 0
KPG1 151811Z 22008KT 34/13 A2997 RMK A01 T03370131  RH  029%=      5-min Rain = 0
KPG1 151812Z 22010KT 34/13 A2997 RMK A01 T03370129  RH  028%=      5-min Rain = 0
KPG1 151813Z 21007KT 34/13 A2997 RMK A01 T03350125  RH  028%=      5-min Rain = 0
KPG1 151814Z 20006KT 34/13 A2997 RMK A01 T03350126  RH  028%=      5-min Rain = 0
KPG1 151815Z 21003KT 34/13 A2997 RMK A01 T03370127  RH  028%=      5-min Rain = 0
KPG1 151816Z 23007KT 34/13 A2997 RMK A01 T03360129  RH  029%=      5-min Rain = 0
KPG1 151817Z 20008KT 34/13 A2997 RMK A01 T03390132  RH  029%=      5-min Rain = 0
KPG1 151818Z 19010KT 34/13 A2997 RMK A01 T03420133  RH  028%=      5-min Rain = 0
KPG1 151819Z 20010KT 34/13 A2997 RMK A01 T03420133  RH  028%=      5-min Rain = 0
KPG1 151820Z 20007KT 34/13 A2997 RMK A01 T03440133  RH  028%=      5-min Rain = 0
KPG1 151821Z 21010KT 34/13 A2997 RMK A01 T03440133  RH  028%=      5-min Rain = 0
KPG1 151822Z 22011KT 34/13 A2997 RMK A01 T03430133  RH  028%=      5-min Rain = 0
KPG1 151823Z 21008KT 34/13 A2997 RMK A01 T03400131  RH  028%=      5-min Rain = 0
KPG1 151824Z 20007KT 34/13 A2997 RMK A01 T03420129  RH  028%=      5-min Rain = 0
KPG1 151825Z 18009KT 34/13 A2997 RMK A01 T03440128  RH  027%=      5-min Rain = 0
KPG1 151826Z 19009KT 34/13 A2997 RMK A01 T03430128  RH  027%=      5-min Rain = 0
KPG1 151827Z 16007KT 34/13 A2997 RMK A01 T03440127  RH  027%=      5-min Rain = 0
KPG1 151828Z 18007KT 35/13 A2997 RMK A01 T03450128  RH  027%=      5-min Rain = 0
KPG1 151829Z 18008KT 35/13 A2997 RMK A01 T03500130  RH  027%=      5-min Rain = 0
KPG1 151830Z 17010KT 35/13 A2997 RMK A01 T03540128  RH  026%=      5-min Rain = 0
KPG1 151831Z 19010KT 35/12 A2997 RMK A01 T03540124  RH  025%=      5-min Rain = 0
KPG1 151832Z 18008KT 35/12 A2997 RMK A01 T03500121  RH  025%=      5-min Rain = 0
KPG1 151833Z 22006KT 35/12 A2997 RMK A01 T03500119  RH  025%=      5-min Rain = 0
KPG1 151834Z 24006KT 35/12 A2997 RMK A01 T03530121  RH  025%=      5-min Rain = 0
KPG1 151835Z 22004KT 35/12 A2997 RMK A01 T03500124  RH  025%=      5-min Rain = 0
KPG1 151836Z 22003KT 35/12 A2997 RMK A01 T03470122  RH  026%=      5-min Rain = 0
KPG1 151837Z 21003KT 34/12 A2997 RMK A01 T03440123  RH  026%=      5-min Rain = 0
KPG1 151838Z 21007KT 35/12 A2997 RMK A01 T03460122  RH  026%=      5-min Rain = 0
KPG1 151839Z 22008KT 35/12 A2997 RMK A01 T03480118  RH  025%=      5-min Rain = 0
KPG1 151840Z 24009KT 35/12 A2996 RMK A01 T03490116  RH  024%=      5-min Rain = 0
KPG1 151841Z 21007KT 35/11 A2997 RMK A01 T03500114  RH  024%=      5-min Rain = 0
KPG1 151842Z 19007KT 35/12 A2996 RMK A01 T03480116  RH  024%=      5-min Rain = 0
KPG1 151843Z 21006KT 35/12 A2996 RMK A01 T03510116  RH  024%=      5-min Rain = 0
KPG1 151844Z 20002KT 35/11 A2996 RMK A01 T03490114  RH  024%=      5-min Rain = 0
KPG1 151845Z 22003KT 35/11 A2996 RMK A01 T03460114  RH  024%=      5-min Rain = 0
KPG1 151846Z 18002KT 35/11 A2996 RMK A01 T03460113  RH  024%=      5-min Rain = 0
KPG1 151847Z 20004KT 35/11 A2996 RMK A01 T03450113  RH  024%=      5-min Rain = 0
KPG1 151848Z 28007KT 35/12 A2996 RMK A01 T03450115  RH  025%=      5-min Rain = 0
KPG1 151849Z 27006KT 35/12 A2996 RMK A01 T03480115  RH  024%=      5-min Rain = 0
KPG1 151850Z 29006KT 35/11 A2996 RMK A01 T03480114  RH  024%=      5-min Rain = 0
KPG1 151851Z 30004KT 35/11 A2996 RMK A01 T03460114  RH  025%=      5-min Rain = 0
KPG1 151852Z 25003KT 34/11 A2996 RMK A01 T03430113  RH  025%=      5-min Rain = 0
KPG1 151853Z 15001KT 34/11 A2996 RMK A01 T03410114  RH  025%=      5-min Rain = 0
KPG1 151854Z 10000KT 34/11 A2996 RMK A01 T03410113  RH  025%=      5-min Rain = 0
KPG1 151855Z 03002KT 34/11 A2995 RMK A01 T03420112  RH  025%=      5-min Rain = 0
KPG1 151856Z 35006KT 34/11 A2995 RMK A01 T03440105  RH  023%=      5-min Rain = 0
KPG1 151857Z 34003KT 34/10 A2995 RMK A01 T03440101  RH  023%=      5-min Rain = 0
KPG1 151858Z 03002KT 35/10 A2995 RMK A01 T03450101  RH  023%=      5-min Rain = 0
KPG1 151859Z 35003KT 35/10 A2995 RMK A01 T03500100  RH  022%=      5-min Rain = 0
KPG1 151900Z 30002KT 36/10 A2995 RMK A01 T03560101  RH  021%=      5-min Rain = 0
KPG1 151901Z 23005KT 36/11 A2995 RMK A01 T03570106  RH  022%=      5-min Rain = 0
KPG1 151902Z 22006KT 36/12 A2995 RMK A01 T03600115  RH  023%=      5-min Rain = 0
KPG1 151903Z 19005KT 36/12 A2995 RMK A01 T03600116  RH  023%=      5-min Rain = 0
KPG1 151904Z 23007KT 36/12 A2995 RMK A01 T03570115  RH  023%=      5-min Rain = 0
KPG1 151905Z 24007KT 36/11 A2995 RMK A01 T03560112  RH  023%=      5-min Rain = 0
KPG1 151906Z 28005KT 35/11 A2995 RMK A01 T03530110  RH  023%=      5-min Rain = 0
KPG1 151907Z 27004KT 35/11 A2995 RMK A01 T03490106  RH  023%=      5-min Rain = 0
KPG1 151908Z 26006KT 35/09 A2995 RMK A01 T03470094  RH  021%=      5-min Rain = 0
KPG1 151909Z 24001KT 35/09 A2995 RMK A01 T03460091  RH  021%=      5-min Rain = 0
KPG1 151910Z 25002KT 35/09 A2995 RMK A01 T03460091  RH  021%=      5-min Rain = 0
KPG1 151911Z 25007KT 35/09 A2995 RMK A01 T03480093  RH  021%=      5-min Rain = 0
KPG1 151912Z 26004G9KT 35/09 A2995 RMK A01 T03510087  RH  020%=      5-min Rain = 0
KPG1 151913Z 28004KT 35/09 A2995 RMK A01 T03520085  RH  020%=      5-min Rain = 0
KPG1 151914Z 27004KT 35/09 A2995 RMK A01 T03510085  RH  020%=      5-min Rain = 0
KPG1 151915Z 27002KT 35/09 A2995 RMK A01 T03520087  RH  020%=      5-min Rain = 0
KPG1 151916Z 29005KT 36/09 A2995 RMK A01 T03580094  RH  020%=      5-min Rain = 0
KPG1 151917Z 31003KT 36/09 A2995 RMK A01 T03590093  RH  020%=      5-min Rain = 0
KPG1 151918Z 31004KT 36/09 A2994 RMK A01 T03590093  RH  020%=      5-min Rain = 0
KPG1 151919Z 27005KT 36/09 A2994 RMK A01 T03580093  RH  020%=      5-min Rain = 0
KPG1 151920Z 24005KT 36/09 A2994 RMK A01 T03580093  RH  020%=      5-min Rain = 0
KPG1 151921Z 24005KT 36/09 A2994 RMK A01 T03590093  RH  020%=      5-min Rain = 0
KPG1 151922Z 24004KT 36/09 A2994 RMK A01 T03580093  RH  020%=      5-min Rain = 0
KPG1 151923Z 25005KT 36/09 A2994 RMK A01 T03570092  RH  020%=      5-min Rain = 0
KPG1 151924Z 26006KT 36/09 A2994 RMK A01 T03560092  RH  020%=      5-min Rain = 0
KPG1 151925Z 29003KT 36/09 A2994 RMK A01 T03560092  RH  020%=      5-min Rain = 0
KPG1 151926Z 08003KT 36/09 A2994 RMK A01 T03570091  RH  020%=      5-min Rain = 0
KPG1 151927Z 13006KT 36/09 A2994 RMK A01 T03580087  RH  019%=      5-min Rain = 0
KPG1 151928Z 15009KT 36/09 A2994 RMK A01 T03600085  RH  019%=      5-min Rain = 0
KPG1 151929Z 14008KT 36/09 A2994 RMK A01 T03610087  RH  019%=      5-min Rain = 0
KPG1 151930Z 13008KT 36/09 A2994 RMK A01 T03600089  RH  019%=      5-min Rain = 0
KPG1 151931Z 13006KT 36/09 A2994 RMK A01 T03580093  RH  020%=      5-min Rain = 0
KPG1 151932Z 18005KT 36/09 A2994 RMK A01 T03570089  RH  020%=      5-min Rain = 0
KPG1 151933Z 19007KT 36/09 A2994 RMK A01 T03590086  RH  019%=      5-min Rain = 0
KPG1 151934Z 20007KT 36/09 A2994 RMK A01 T03610086  RH  019%=      5-min Rain = 0
KPG1 151935Z 20007KT 36/09 A2994 RMK A01 T03610086  RH  019%=      5-min Rain = 0
KPG1 151936Z 18008KT 36/09 A2994 RMK A01 T03610087  RH  019%=      5-min Rain = 0
KPG1 151937Z 16006KT 36/09 A2993 RMK A01 T03630087  RH  019%=      5-min Rain = 0
KPG1 151938Z 17006KT 36/09 A2993 RMK A01 T03610087  RH  019%=      5-min Rain = 0
KPG1 151939Z 18006KT 36/09 A2993 RMK A01 T03610086  RH  019%=      5-min Rain = 0
KPG1 151940Z 21006KT 36/09 A2993 RMK A01 T03620085  RH  019%=      5-min Rain = 0
KPG1 151941Z 23006KT 37/09 A2993 RMK A01 T03650086  RH  018%=      5-min Rain = 0
KPG1 151942Z 21008KT 37/09 A2993 RMK A01 T03670086  RH  018%=      5-min Rain = 0
KPG1 151943Z 23008KT 37/09 A2993 RMK A01 T03690087  RH  018%=      5-min Rain = 0
KPG1 151944Z 24009KT 37/09 A2993 RMK A01 T03680086  RH  018%=      5-min Rain = 0
KPG1 151945Z 22007KT 37/08 A2993 RMK A01 T03660084  RH  018%=      5-min Rain = 0
KPG1 151946Z 22004KT 36/08 A2993 RMK A01 T03610081  RH  018%=      5-min Rain = 0
KPG1 151947Z 24004KT 36/08 A2993 RMK A01 T03580081  RH  018%=      5-min Rain = 0
KPG1 151948Z 32001KT 36/08 A2993 RMK A01 T03570082  RH  019%=      5-min Rain = 0
KPG1 151949Z 18005KT 36/08 A2993 RMK A01 T03590081  RH  018%=      5-min Rain = 0
KPG1 151950Z 22004KT 36/08 A2993 RMK A01 T03590080  RH  018%=      5-min Rain = 0
KPG1 151951Z 25004KT 36/08 A2993 RMK A01 T03590081  RH  018%=      5-min Rain = 0
KPG1 151952Z 25007KT 36/08 A2993 RMK A01 T03600081  RH  018%=      5-min Rain = 0
KPG1 151953Z 25007KT 36/08 A2992 RMK A01 T03610082  RH  018%=      5-min Rain = 0
KPG1 151954Z 25005KT 36/08 A2993 RMK A01 T03600079  RH  018%=      5-min Rain = 0
KPG1 151955Z 24006KT 36/08 A2993 RMK A01 T03590081  RH  018%=      5-min Rain = 0
KPG1 151956Z 24004KT 36/08 A2993 RMK A01 T03570082  RH  019%=      5-min Rain = 0
KPG1 151957Z 23003KT 36/08 A2993 RMK A01 T03580082  RH  018%=      5-min Rain = 0
KPG1 151958Z 25002KT 36/08 A2993 RMK A01 T03580081  RH  018%=      5-min Rain = 0
KPG1 151959Z 24003KT 36/08 A2992 RMK A01 T03590081  RH  018%=      5-min Rain = 0
KPG1 152000Z 25006KT 36/08 A2992 RMK A01 T03600080  RH  018%=      5-min Rain = 0
KPG1 152001Z 24006KT 36/08 A2992 RMK A01 T03630080  RH  018%=      5-min Rain = 0
KPG1 152002Z 23004KT 36/08 A2992 RMK A01 T03640079  RH  018%=      5-min Rain = 0
KPG1 152003Z 21004KT 36/08 A2992 RMK A01 T03630079  RH  018%=      5-min Rain = 0
KPG1 152004Z 19004KT 36/08 A2992 RMK A01 T03620077  RH  017%=      5-min Rain = 0
KPG1 152005Z 20002KT 36/08 A2992 RMK A01 T03620075  RH  017%=      5-min Rain = 0
KPG1 152006Z 17002KT 36/08 A2992 RMK A01 T03630075  RH  017%=      5-min Rain = 0
KPG1 152007Z 18003KT 36/08 A2992 RMK A01 T03640076  RH  017%=      5-min Rain = 0
KPG1 152008Z 18005KT 37/08 A2992 RMK A01 T03680075  RH  017%=      5-min Rain = 0
KPG1 152009Z 18005KT 37/07 A2992 RMK A01 T03670074  RH  017%=      5-min Rain = 0
KPG1 152010Z 15004KT 37/07 A2992 RMK A01 T03660074  RH  017%=      5-min Rain = 0
KPG1 152011Z 17007KT 37/07 A2992 RMK A01 T03680073  RH  016%=      5-min Rain = 0
KPG1 152012Z 16005KT 37/07 A2992 RMK A01 T03710065  RH  015%=      5-min Rain = 0
KPG1 152013Z 17002KT 37/06 A2992 RMK A01 T03710062  RH  015%=      5-min Rain = 0
KPG1 152014Z 16005G11KT 37/06 A2992 RMK A01 T03690063  RH  015%=      5-min Rain = 0
KPG1 152015Z 13011KT 37/06 A2992 RMK A01 T03700061  RH  015%=      5-min Rain = 0
KPG1 152016Z 12010KT 37/06 A2992 RMK A01 T03690060  RH  015%=      5-min Rain = 0
KPG1 152017Z 14008KT 37/06 A2992 RMK A01 T03660056  RH  015%=      5-min Rain = 0
KPG1 152018Z 12006KT 37/05 A2992 RMK A01 T03660054  RH  015%=      5-min Rain = 0
KPG1 152019Z 09006KT 37/05 A2992 RMK A01 T03690052  RH  014%=      5-min Rain = 0
KPG1 152020Z 13007KT 37/05 A2992 RMK A01 T03690049  RH  014%=      5-min Rain = 0
KPG1 152021Z 15008KT 37/04 A2991 RMK A01 T03680039  RH  013%=      5-min Rain = 0
KPG1 152022Z 12008KT 37/04 A2991 RMK A01 T03670041  RH  013%=      5-min Rain = 0
KPG1 152023Z 07006KT 37/04 A2992 RMK A01 T03660041  RH  013%=      5-min Rain = 0
KPG1 152024Z 05005KT 36/04 A2992 RMK A01 T03640040  RH  013%=      5-min Rain = 0
KPG1 152025Z 02002KT 36/05 A2992 RMK A01 T03630046  RH  014%=      5-min Rain = 0
KPG1 152026Z 30001KT 36/05 A2991 RMK A01 T03600045  RH  014%=      5-min Rain = 0
KPG1 152027Z 31002KT 36/05 A2991 RMK A01 T03600046  RH  014%=      5-min Rain = 0
KPG1 152028Z 30002KT 36/05 A2991 RMK A01 T03620048  RH  014%=      5-min Rain = 0
KPG1 152029Z 10003G9KT 36/05 A2991 RMK A01 T03620049  RH  014%=      5-min Rain = 0
KPG1 152030Z 10008KT 37/05 A2991 RMK A01 T03650054  RH  015%=      5-min Rain = 0
KPG1 152031Z 07010KT 37/06 A2991 RMK A01 T03650058  RH  015%=      5-min Rain = 0
KPG1 152032Z 05009KT 37/05 A2991 RMK A01 T03650054  RH  015%=      5-min Rain = 0
KPG1 152033Z 06010KT 37/05 A2991 RMK A01 T03660052  RH  014%=      5-min Rain = 0
KPG1 152034Z 06008KT 37/06 A2991 RMK A01 T03660059  RH  015%=      5-min Rain = 0
KPG1 152035Z 06007KT 37/06 A2991 RMK A01 T03660059  RH  015%=      5-min Rain = 0
KPG1 152036Z 09009KT 37/06 A2991 RMK A01 T03690061  RH  015%=      5-min Rain = 0
KPG1 152037Z 12009KT 37/06 A2991 RMK A01 T03700062  RH  015%=      5-min Rain = 0
KPG1 152038Z 12009KT 37/06 A2991 RMK A01 T03690060  RH  015%=      5-min Rain = 0
KPG1 152039Z 13005KT 37/06 A2991 RMK A01 T03650056  RH  015%=      5-min Rain = 0
KPG1 152040Z 14006KT 36/06 A2991 RMK A01 T03620055  RH  015%=      5-min Rain = 0
KPG1 152041Z 12007KT 36/06 A2991 RMK A01 T03610060  RH  016%=      5-min Rain = 0
KPG1 152042Z 07005KT 36/06 A2991 RMK A01 T03630060  RH  016%=      5-min Rain = 0
KPG1 152043Z 11004KT 37/06 A2991 RMK A01 T03660059  RH  015%=      5-min Rain = 0
KPG1 152044Z 19005KT 37/06 A299 RMK A01 T03660059  RH  015%=      5-min Rain = 0
KPG1 152045Z 11005KT 37/06 A2991 RMK A01 T03680058  RH  015%=      5-min Rain = 0
KPG1 152046Z 13008KT 37/05 A2991 RMK A01 T03690054  RH  014%=      5-min Rain = 0
KPG1 152047Z 12009KT 37/05 A2991 RMK A01 T03680054  RH  014%=      5-min Rain = 0
KPG1 152048Z 11006KT 37/05 A2991 RMK A01 T03660048  RH  014%=      5-min Rain = 0
KPG1 152049Z 09004KT 36/05 A2991 RMK A01 T03630046  RH  014%=      5-min Rain = 0
KPG1 152050Z 10005KT 36/05 A2991 RMK A01 T03620047  RH  014%=      5-min Rain = 0
KPG1 152051Z 10005KT 36/04 A2991 RMK A01 T03640037  RH  013%=      5-min Rain = 0
KPG1 152052Z 12003KT 36/04 A2991 RMK A01 T03630037  RH  013%=      5-min Rain = 0
KPG1 152053Z 12002KT 36/04 A2991 RMK A01 T03630036  RH  013%=      5-min Rain = 0
KPG1 152054Z 10003KT 36/04 A299 RMK A01 T03640035  RH  013%=      5-min Rain = 0
KPG1 152055Z 04003KT 37/04 A299 RMK A01 T03680037  RH  013%=      5-min Rain = 0
KPG1 152056Z 36003KT 37/04 A299 RMK A01 T03720042  RH  013%=      5-min Rain = 0
KPG1 152057Z 36004KT 37/05 A299 RMK A01 T03710046  RH  013%=      5-min Rain = 0
KPG1 152058Z 02003KT 37/05 A299 RMK A01 T03660048  RH  014%=      5-min Rain = 0
KPG1 152059Z 06003KT 36/05 A299 RMK A01 T03630047  RH  014%=      5-min Rain = 0
KPG1 152100Z 05005KT 37/05 A299 RMK A01 T03670050  RH  014%=      5-min Rain = 0
KPG1 152101Z 35003KT 37/05 A299 RMK A01 T03730052  RH  014%=      5-min Rain = 0
KPG1 152102Z 01004KT 38/05 A299 RMK A01 T03770053  RH  014%=      5-min Rain = 0
KPG1 152103Z 05005KT 38/05 A299 RMK A01 T03790052  RH  013%=      5-min Rain = 0
KPG1 152104Z 04006KT 38/05 A299 RMK A01 T03790052  RH  013%=      5-min Rain = 0
KPG1 152105Z 02006KT 38/05 A299 RMK A01 T03760052  RH  014%=      5-min Rain = 0
KPG1 152106Z 02002KT 37/05 A299 RMK A01 T03720049  RH  014%=      5-min Rain = 0
KPG1 152107Z 05005KT 37/05 A299 RMK A01 T03700051  RH  014%=      5-min Rain = 0
KPG1 152108Z 04006KT 37/05 A299 RMK A01 T03710051  RH  014%=      5-min Rain = 0
KPG1 152109Z 04006KT 37/05 A299 RMK A01 T03720051  RH  014%=      5-min Rain = 0
KPG1 152110Z 03007KT 37/05 A299 RMK A01 T03710049  RH  014%=      5-min Rain = 0
KPG1 152111Z 02005KT 37/05 A299 RMK A01 T03680048  RH  014%=      5-min Rain = 0
KPG1 152112Z 06005KT 36/05 A299 RMK A01 T03640047  RH  014%=      5-min Rain = 0
KPG1 152113Z 06003KT 36/05 A299 RMK A01 T03620047  RH  014%=      5-min Rain = 0
KPG1 152114Z 25001KT 36/05 A299 RMK A01 T03610048  RH  014%=      5-min Rain = 0
KPG1 152115Z 04002KT 36/05 A299 RMK A01 T03630049  RH  014%=      5-min Rain = 0
KPG1 152116Z 07007KT 37/05 A299 RMK A01 T03690047  RH  014%=      5-min Rain = 0
KPG1 152117Z 09005KT 37/04 A299 RMK A01 T03690044  RH  013%=      5-min Rain = 0
KPG1 152118Z 06005KT 37/05 A299 RMK A01 T03680046  RH  014%=      5-min Rain = 0
KPG1 152119Z 05010KT 37/05 A299 RMK A01 T03730049  RH  014%=      5-min Rain = 0
KPG1 152120Z 04010KT 37/05 A299 RMK A01 T03700047  RH  014%=      5-min Rain = 0
KPG1 152121Z 03010KT 37/05 A299 RMK A01 T03660046  RH  014%=      5-min Rain = 0
KPG1 152122Z 03012KT 37/04 A299 RMK A01 T03670044  RH  014%=      5-min Rain = 0
KPG1 152123Z 07013KT 37/05 A299 RMK A01 T03700045  RH  013%=      5-min Rain = 0
KPG1 152124Z 08011KT 37/04 A299 RMK A01 T03730044  RH  013%=      5-min Rain = 0
KPG1 152125Z 07010KT 37/05 A299 RMK A01 T03730045  RH  013%=      5-min Rain = 0
KPG1 152126Z 03008KT 37/05 A299 RMK A01 T03710047  RH  013%=      5-min Rain = 0
KPG1 152127Z 04005KT 37/05 A299 RMK A01 T03740048  RH  013%=      5-min Rain = 0
KPG1 152128Z 01007KT 38/05 A299 RMK A01 T03780047  RH  013%=      5-min Rain = 0
KPG1 152129Z 00008KT 37/05 A299 RMK A01 T03740045  RH  013%=      5-min Rain = 0
KPG1 152130Z 35005KT 37/04 A2989 RMK A01 T03680044  RH  013%=      5-min Rain = 0
KPG1 152131Z 01002KT 36/04 A2989 RMK A01 T03640043  RH  014%=      5-min Rain = 0
KPG1 152132Z 07005KT 36/04 A2989 RMK A01 T03630044  RH  014%=      5-min Rain = 0
KPG1 152133Z 05007KT 36/04 A2989 RMK A01 T03610044  RH  014%=      5-min Rain = 0
KPG1 152134Z 02009KT 36/05 A2989 RMK A01 T03630046  RH  014%=      5-min Rain = 0
KPG1 152135Z 01008KT 36/05 A2989 RMK A01 T03640047  RH  014%=      5-min Rain = 0
KPG1 152136Z 02009KT 37/05 A2989 RMK A01 T03650047  RH  014%=      5-min Rain = 0
KPG1 152137Z 01010KT 36/05 A2989 RMK A01 T03640047  RH  014%=      5-min Rain = 0
KPG1 152138Z 00009KT 36/05 A2989 RMK A01 T03600046  RH  014%=      5-min Rain = 0
KPG1 152139Z 01007KT 36/05 A2989 RMK A01 T03570047  RH  015%=      5-min Rain = 0
KPG1 152140Z 03009KT 36/05 A2989 RMK A01 T03570048  RH  015%=      5-min Rain = 0
KPG1 152141Z 05008KT 36/05 A2989 RMK A01 T03590048  RH  015%=      5-min Rain = 0
KPG1 152142Z 04009KT 36/05 A2989 RMK A01 T03580049  RH  015%=      5-min Rain = 0
KPG1 152143Z 04013KT 36/05 A2989 RMK A01 T03570049  RH  015%=      5-min Rain = 0
KPG1 152144Z 04011KT 36/05 A2989 RMK A01 T03550047  RH  015%=      5-min Rain = 0
KPG1 152145Z 04011KT 35/05 A2989 RMK A01 T03540048  RH  015%=      5-min Rain = 0
KPG1 152146Z 03010KT 35/05 A2989 RMK A01 T03540048  RH  015%=      5-min Rain = 0
KPG1 152147Z 02009KT 36/05 A2989 RMK A01 T03550048  RH  015%=      5-min Rain = 0
KPG1 152148Z 02007KT 35/05 A2989 RMK A01 T03530047  RH  015%=      5-min Rain = 0
KPG1 152149Z 03008KT 35/05 A2989 RMK A01 T03520048  RH  015%=      5-min Rain = 0
KPG1 152150Z 04006KT 35/05 A2989 RMK A01 T03520047  RH  015%=      5-min Rain = 0
KPG1 152151Z 04006KT 35/05 A2989 RMK A01 T03530046  RH  015%=      5-min Rain = 0
KPG1 152152Z 03007KT 35/05 A2989 RMK A01 T03530046  RH  015%=      5-min Rain = 0
KPG1 152153Z 04009KT 35/05 A2989 RMK A01 T03540045  RH  015%=      5-min Rain = 0
KPG1 152154Z 04010KT 36/04 A2989 RMK A01 T03560044  RH  014%=      5-min Rain = 0
KPG1 152155Z 03012KT 35/04 A2989 RMK A01 T03540043  RH  014%=      5-min Rain = 0
KPG1 152156Z 03009KT 35/04 A2989 RMK A01 T03530043  RH  015%=      5-min Rain = 0
KPG1 152157Z 04009KT 35/04 A2989 RMK A01 T03530043  RH  015%=      5-min Rain = 0
KPG1 152158Z 04009KT 35/04 A2989 RMK A01 T03520043  RH  015%=      5-min Rain = 0
KPG1 152159Z 04008KT 35/04 A2989 RMK A01 T03520043  RH  015%=      5-min Rain = 0
KPG1 152200Z 05004KT 35/05 A2989 RMK A01 T03520047  RH  015%=      5-min Rain = 0
KPG1 152201Z 04004KT 35/06 A2989 RMK A01 T03510060  RH  016%=      5-min Rain = 0
KPG1 152202Z 34007KT 35/08 A2989 RMK A01 T03510076  RH  018%=      5-min Rain = 0
KPG1 152203Z 33009KT 35/11 A2989 RMK A01 T03470111  RH  024%=      5-min Rain = 0
KPG1 152204Z 32006KT 34/12 A2989 RMK A01 T03400116  RH  026%=      5-min Rain = 0
KPG1 152205Z 32006KT 34/11 A2989 RMK A01 T03360112  RH  026%=      5-min Rain = 0
KPG1 152206Z 32007KT 33/13 A2989 RMK A01 T03330128  RH  029%=      5-min Rain = 0
KPG1 152207Z 32007KT 33/13 A299 RMK A01 T03300127  RH  029%=      5-min Rain = 0
KPG1 152208Z 31005KT 33/10 A299 RMK A01 T03290095  RH  024%=      5-min Rain = 0
KPG1 152209Z 32007G12KT 33/09 A299 RMK A01 T03300085  RH  022%=      5-min Rain = 0
KPG1 152210Z 01015KT 33/12 A2989 RMK A01 T03320115  RH  027%=      5-min Rain = 0
KPG1 152211Z 06012G18KT 33/12 A299 RMK A01 T03310117  RH  027%=      5-min Rain = 0
KPG1 152212Z 07010KT 33/12 A299 RMK A01 T03310119  RH  027%=      5-min Rain = 0
KPG1 152213Z 04010KT 33/12 A299 RMK A01 T03300117  RH  027%=      5-min Rain = 0
KPG1 152214Z 06009G14KT 33/12 A299 RMK A01 T03290120  RH  028%=      5-min Rain = 0
KPG1 152215Z 07013G18KT 33/12 A299 RMK A01 T03290118  RH  028%=      5-min Rain = 0
KPG1 152216Z 06011KT 33/11 A299 RMK A01 T03290114  RH  027%=      5-min Rain = 0
KPG1 152217Z 06013G19KT 33/12 A299 RMK A01 T03290119  RH  028%=      5-min Rain = 0
KPG1 152218Z 06014G19KT 33/12 A299 RMK A01 T03280121  RH  028%=      5-min Rain = 0
KPG1 152219Z 05013G19KT 33/13 A299 RMK A01 T03260128  RH  030%=      5-min Rain = 0
KPG1 152220Z 07013G19KT 33/13 A299 RMK A01 T03250129  RH  030%=      5-min Rain = 0
KPG1 152221Z 08017KT 32/13 A299 RMK A01 T03240130  RH  031%=      5-min Rain = 0
KPG1 152222Z 09018KT 32/13 A299 RMK A01 T03220125  RH  030%=      5-min Rain = 0
KPG1 152223Z 09017G22KT 32/12 A299 RMK A01 T03210121  RH  029%=      5-min Rain = 0
KPG1 152224Z 09011G16KT 32/12 A299 RMK A01 T03200122  RH  030%=      5-min Rain = 0
KPG1 152225Z 09010G17KT 32/12 A299 RMK A01 T03200124  RH  030%=      5-min Rain = 0
KPG1 152226Z 09012KT 32/13 A299 RMK A01 T03200125  RH  030%=      5-min Rain = 0
KPG1 152227Z 06010KT 32/12 A299 RMK A01 T03200124  RH  030%=      5-min Rain = 0
KPG1 152228Z 05008KT 32/13 A299 RMK A01 T03200125  RH  030%=      5-min Rain = 0
KPG1 152229Z 08010KT 32/12 A299 RMK A01 T03210123  RH  030%=      5-min Rain = 0
KPG1 152230Z 09011G18KT 32/12 A299 RMK A01 T03210122  RH  030%=      5-min Rain = 0
KPG1 152231Z 09012KT 32/11 A299 RMK A01 T03210110  RH  027%=      5-min Rain = 0
KPG1 152232Z 06013KT 32/11 A299 RMK A01 T03220111  RH  028%=      5-min Rain = 0
KPG1 152233Z 06016G21KT 32/11 A299 RMK A01 T03230112  RH  027%=      5-min Rain = 0
KPG1 152234Z 06013G19KT 32/11 A299 RMK A01 T03240114  RH  028%=      5-min Rain = 0
KPG1 152235Z 04013G18KT 32/12 A299 RMK A01 T03230121  RH  029%=      5-min Rain = 0
KPG1 152236Z 03014KT 32/13 A299 RMK A01 T03220126  RH  030%=      5-min Rain = 0
KPG1 152237Z 03014G19KT 32/13 A299 RMK A01 T03210125  RH  030%=      5-min Rain = 0
KPG1 152238Z 03014G19KT 32/12 A2989 RMK A01 T03210124  RH  030%=      5-min Rain = 0
KPG1 152239Z 03014G19KT 32/12 A2989 RMK A01 T03220124  RH  030%=      5-min Rain = 0
KPG1 152240Z 03014G19KT 32/12 A2989 RMK A01 T03230121  RH  029%=      5-min Rain = 0
KPG1 152241Z 04013KT 33/12 A2989 RMK A01 T03250120  RH  029%=      5-min Rain = 0
KPG1 152242Z 02013G20KT 33/12 A2989 RMK A01 T03280118  RH  028%=      5-min Rain = 0
KPG1 152243Z 02012KT 33/12 A2989 RMK A01 T03280115  RH  027%=      5-min Rain = 0
KPG1 152244Z 03012KT 33/11 A2989 RMK A01 T03290108  RH  026%=      5-min Rain = 0
KPG1 152245Z 04014KT 33/11 A2989 RMK A01 T03300112  RH  026%=      5-min Rain = 0
KPG1 152246Z 03015KT 33/11 A2989 RMK A01 T03320112  RH  026%=      5-min Rain = 0
KPG1 152247Z 03013KT 33/11 A2989 RMK A01 T03320112  RH  026%=      5-min Rain = 0
KPG1 152248Z 04009KT 33/11 A2989 RMK A01 T03330111  RH  026%=      5-min Rain = 0
KPG1 152249Z 03011G16KT 34/11 A2989 RMK A01 T03370110  RH  025%=      5-min Rain = 0
KPG1 152250Z 05011KT 34/11 A2988 RMK A01 T03380110  RH  025%=      5-min Rain = 0
KPG1 152251Z 06014KT 34/11 A2989 RMK A01 T03390112  RH  025%=      5-min Rain = 0
KPG1 152252Z 06011G16KT 34/11 A2989 RMK A01 T03380111  RH  025%=      5-min Rain = 0
KPG1 152253Z 06014G19KT 34/11 A2989 RMK A01 T03360108  RH  025%=      5-min Rain = 0
KPG1 152254Z 06012KT 34/10 A2989 RMK A01 T03360101  RH  024%=      5-min Rain = 0
KPG1 152255Z 07009KT 34/10 A2989 RMK A01 T03360099  RH  023%=      5-min Rain = 0
KPG1 152256Z 08009KT 34/10 A2989 RMK A01 T03360101  RH  024%=      5-min Rain = 0
KPG1 152257Z 09008KT 34/11 A2989 RMK A01 T03370105  RH  024%=      5-min Rain = 0
KPG1 152258Z 09011KT 34/11 A2989 RMK A01 T03380108  RH  025%=      5-min Rain = 0
KPG1 152259Z 07012G17KT 34/11 A2989 RMK A01 T03380112  RH  025%=      5-min Rain = 0
KPG1 152300Z 06012KT 34/11 A2989 RMK A01 T03390113  RH  025%=      5-min Rain = 0
KPG1 152301Z 06014KT 34/11 A2989 RMK A01 T03380109  RH  025%=      5-min Rain = 0
KPG1 152302Z 06012G17KT 34/11 A2988 RMK A01 T03390106  RH  024%=      5-min Rain = 0
KPG1 152303Z 06012KT 34/10 A2989 RMK A01 T03390102  RH  024%=      5-min Rain = 0
KPG1 152304Z 06012KT 34/10 A2988 RMK A01 T03400095  RH  022%=      5-min Rain = 0
KPG1 152305Z 06013KT 34/09 A2988 RMK A01 T03400092  RH  022%=      5-min Rain = 0
KPG1 152306Z 06011KT 34/09 A2988 RMK A01 T03390092  RH  022%=      5-min Rain = 0
KPG1 152307Z 06010KT 34/09 A2988 RMK A01 T03390092  RH  022%=      5-min Rain = 0
KPG1 152308Z 07011KT 34/10 A2988 RMK A01 T03400096  RH  022%=      5-min Rain = 0
KPG1 152309Z 08010KT 34/10 A2988 RMK A01 T03410101  RH  023%=      5-min Rain = 0
KPG1 152310Z 04011KT 34/10 A2988 RMK A01 T03410103  RH  023%=      5-min Rain = 0
KPG1 152311Z 05011KT 34/10 A2988 RMK A01 T03410101  RH  023%=      5-min Rain = 0
KPG1 152312Z 06008KT 34/09 A2988 RMK A01 T03380092  RH  022%=      5-min Rain = 0
KPG1 152313Z 05009KT 34/09 A2988 RMK A01 T03370089  RH  022%=      5-min Rain = 0
KPG1 152314Z 05009KT 34/09 A2988 RMK A01 T03390090  RH  022%=      5-min Rain = 0
KPG1 152315Z 06008KT 34/10 A2988 RMK A01 T03400096  RH  022%=      5-min Rain = 0
KPG1 152316Z 10007KT 34/10 A2988 RMK A01 T03410099  RH  023%=      5-min Rain = 0
KPG1 152317Z 08007KT 34/10 A2988 RMK A01 T03420100  RH  023%=      5-min Rain = 0
KPG1 152318Z 07011KT 34/10 A2988 RMK A01 T03440095  RH  022%=      5-min Rain = 0
KPG1 152319Z 08012KT 34/09 A2988 RMK A01 T03440091  RH  021%=      5-min Rain = 0
KPG1 152320Z 09011KT 34/09 A2988 RMK A01 T03430092  RH  021%=      5-min Rain = 0
KPG1 152321Z 08010KT 34/10 A2988 RMK A01 T03420097  RH  022%=      5-min Rain = 0
KPG1 152322Z 08009KT 34/10 A2988 RMK A01 T03430100  RH  023%=      5-min Rain = 0
KPG1 152323Z 07007KT 34/10 A2988 RMK A01 T03420099  RH  023%=      5-min Rain = 0
KPG1 152324Z 06009G14KT 34/09 A2988 RMK A01 T03410094  RH  022%=      5-min Rain = 0
KPG1 152325Z 06013KT 34/09 A2988 RMK A01 T03420089  RH  021%=      5-min Rain = 0
KPG1 152326Z 07011KT 34/09 A2988 RMK A01 T03430085  RH  021%=      5-min Rain = 0
KPG1 152327Z 08007G12KT 34/09 A2988 RMK A01 T03430089  RH  021%=      5-min Rain = 0
KPG1 152328Z 08008KT 34/09 A2988 RMK A01 T03420090  RH  021%=      5-min Rain = 0
KPG1 152329Z 08011KT 34/09 A2987 RMK A01 T03430091  RH  021%=      5-min Rain = 0
KPG1 152330Z 05010KT 34/09 A2987 RMK A01 T03430088  RH  021%=      5-min Rain = 0
KPG1 152331Z 06012KT 34/08 A2987 RMK A01 T03440080  RH  020%=      5-min Rain = 0
KPG1 152332Z 06010KT 34/07 A2988 RMK A01 T03440072  RH  019%=      5-min Rain = 0
KPG1 152333Z 06010KT 34/07 A2987 RMK A01 T03410071  RH  019%=      5-min Rain = 0
KPG1 152334Z 10008G14KT 34/08 A2988 RMK A01 T03420077  RH  020%=      5-min Rain = 0
KPG1 152335Z 06010KT 34/08 A2987 RMK A01 T03440084  RH  020%=      5-min Rain = 0
KPG1 152336Z 06006KT 34/09 A2988 RMK A01 T03430085  RH  020%=      5-min Rain = 0
KPG1 152337Z 06010KT 34/08 A2987 RMK A01 T03420083  RH  020%=      5-min Rain = 0
KPG1 152338Z 08008KT 34/09 A2987 RMK A01 T03430085  RH  020%=      5-min Rain = 0
KPG1 152339Z 08006KT 35/09 A2988 RMK A01 T03460088  RH  021%=      5-min Rain = 0
KPG1 152340Z 07008KT 35/09 A2988 RMK A01 T03470088  RH  020%=      5-min Rain = 0
KPG1 152341Z 07012G17KT 35/09 A2987 RMK A01 T03450090  RH  021%=      5-min Rain = 0
KPG1 152342Z 07008KT 34/09 A2988 RMK A01 T03430093  RH  022%=      5-min Rain = 0
KPG1 152343Z 09007KT 34/09 A2988 RMK A01 T03410093  RH  022%=      5-min Rain = 0
KPG1 152344Z 09006KT 34/09 A2988 RMK A01 T03410093  RH  022%=      5-min Rain = 0
KPG1 152345Z 07009G14KT 34/10 A2988 RMK A01 T03420095  RH  022%=      5-min Rain = 0
KPG1 152346Z 07009KT 34/10 A2987 RMK A01 T03430099  RH  023%=      5-min Rain = 0
KPG1 152347Z 09006KT 34/10 A2987 RMK A01 T03430100  RH  023%=      5-min Rain = 0
KPG1 152348Z 07008KT 34/10 A2988 RMK A01 T03430099  RH  023%=      5-min Rain = 0
KPG1 152349Z 05010G16KT 34/10 A2987 RMK A01 T03410099  RH  023%=      5-min Rain = 0
KPG1 152350Z 08010G15KT 34/10 A2988 RMK A01 T03410102  RH  023%=      5-min Rain = 0
KPG1 152351Z 06010KT 34/10 A2987 RMK A01 T03410103  RH  023%=      5-min Rain = 0
KPG1 152352Z 07010KT 34/10 A2987 RMK A01 T03410104  RH  024%=      5-min Rain = 0
KPG1 152353Z 05008KT 34/10 A2987 RMK A01 T03400104  RH  024%=      5-min Rain = 0
KPG1 152354Z 07010KT 34/10 A2987 RMK A01 T03400104  RH  024%=      5-min Rain = 0
KPG1 152355Z 08008KT 34/10 A2987 RMK A01 T03400102  RH  023%=      5-min Rain = 0
KPG1 152356Z 10009KT 34/10 A2987 RMK A01 T03390102  RH  024%=      5-min Rain = 0
KPG1 152357Z 06007KT 34/11 A2987 RMK A01 T03380106  RH  024%=      5-min Rain = 0
KPG1 152358Z 08006KT 34/11 A2987 RMK A01 T03390106  RH  024%=      5-min Rain = 0
KPG1 152359Z 06006KT 34/11 A2987 RMK A01 T03400106  RH  024%=      5-min Rain = 0
KPG1 160000Z 08011KT 34/11 A2987 RMK A01 T03410105  RH  024%=      5-min Rain = 0
KPG1 160001Z 06012G19KT 34/10 A2988 RMK A01 T03410103  RH  023%=      5-min Rain = 0
KPG1 160002Z 06014KT 34/11 A2987 RMK A01 T03380105  RH  024%=      5-min Rain = 0
KPG1 160003Z 06009KT 34/11 A2987 RMK A01 T03370106  RH  024%=      5-min Rain = 0
KPG1 160004Z 05006KT 34/11 A2987 RMK A01 T03370105  RH  024%=      5-min Rain = 0
KPG1 160005Z 05013KT 34/11 A2987 RMK A01 T03380106  RH  024%=      5-min Rain = 0
KPG1 160006Z 05012KT 34/11 A2987 RMK A01 T03380111  RH  025%=      5-min Rain = 0
KPG1 160007Z 06011KT 34/11 A2987 RMK A01 T03380110  RH  025%=      5-min Rain = 0
KPG1 160008Z 05009KT 34/11 A2987 RMK A01 T03390109  RH  025%=      5-min Rain = 0
KPG1 160009Z 07009KT 34/11 A2987 RMK A01 T03390110  RH  025%=      5-min Rain = 0
KPG1 160010Z 10007KT 34/11 A2987 RMK A01 T03400112  RH  025%=      5-min Rain = 0
KPG1 160011Z 07009KT 34/11 A2987 RMK A01 T03420113  RH  025%=      5-min Rain = 0
KPG1 160012Z 06011G17KT 34/11 A2987 RMK A01 T03420110  RH  024%=      5-min Rain = 0
KPG1 160013Z 08010G18KT 34/11 A2987 RMK A01 T03400109  RH  024%=      5-min Rain = 0
KPG1 160014Z 11006KT 34/11 A2987 RMK A01 T03400109  RH  025%=      5-min Rain = 0
KPG1 160015Z 08008KT 34/11 A2987 RMK A01 T03390109  RH  025%=      5-min Rain = 0
KPG1 160016Z 09007KT 34/11 A2987 RMK A01 T03400108  RH  024%=      5-min Rain = 0
KPG1 160017Z 07008KT 34/11 A2987 RMK A01 T03390108  RH  024%=      5-min Rain = 0
KPG1 160018Z 06010KT 34/11 A2987 RMK A01 T03390106  RH  024%=      5-min Rain = 0
KPG1 160019Z 05008KT 34/10 A2987 RMK A01 T03380102  RH  024%=      5-min Rain = 0
KPG1 160020Z 09008KT 34/10 A2987 RMK A01 T03380102  RH  024%=      5-min Rain = 0
KPG1 160021Z 08008KT 34/10 A2987 RMK A01 T03400103  RH  024%=      5-min Rain = 0
KPG1 160022Z 08008KT 34/10 A2987 RMK A01 T03400102  RH  023%=      5-min Rain = 0
KPG1 160023Z 08006KT 34/10 A2987 RMK A01 T03390100  RH  023%=      5-min Rain = 0
KPG1 160024Z 07006KT 34/10 A2987 RMK A01 T03390101  RH  023%=      5-min Rain = 0
KPG1 160025Z 06009KT 34/10 A2987 RMK A01 T03400101  RH  023%=      5-min Rain = 0
KPG1 160026Z 07011KT 34/10 A2987 RMK A01 T03400100  RH  023%=      5-min Rain = 0
KPG1 160027Z 06010KT 34/10 A2987 RMK A01 T03400098  RH  023%=      5-min Rain = 0
KPG1 160028Z 07011KT 34/10 A2987 RMK A01 T03400099  RH  023%=      5-min Rain = 0
KPG1 160029Z 09007KT 34/10 A2987 RMK A01 T03390102  RH  023%=      5-min Rain = 0
KPG1 160030Z 09009KT 34/10 A2987 RMK A01 T03380102  RH  024%=      5-min Rain = 0
KPG1 160031Z 12007G12KT 34/10 A2987 RMK A01 T03380103  RH  024%=      5-min Rain = 0
KPG1 160032Z 13010KT 34/10 A2987 RMK A01 T03380104  RH  024%=      5-min Rain = 0
KPG1 160033Z 13011KT 34/11 A2987 RMK A01 T03390106  RH  024%=      5-min Rain = 0
KPG1 160034Z 08008KT 34/11 A2987 RMK A01 T03370106  RH  024%=      5-min Rain = 0
KPG1 160035Z 06007KT 34/11 A2987 RMK A01 T03370106  RH  024%=      5-min Rain = 0
KPG1 160036Z 07008KT 34/11 A2987 RMK A01 T03360106  RH  025%=      5-min Rain = 0
KPG1 160037Z 06008KT 34/11 A2987 RMK A01 T03360107  RH  025%=      5-min Rain = 0
KPG1 160038Z 08008KT 34/11 A2987 RMK A01 T03360106  RH  025%=      5-min Rain = 0
KPG1 160039Z 13005G10KT 34/11 A2987 RMK A01 T03360107  RH  025%=      5-min Rain = 0
KPG1 160040Z 11010KT 34/11 A2987 RMK A01 T03370107  RH  025%=      5-min Rain = 0
KPG1 160041Z 10006KT 34/11 A2987 RMK A01 T03370107  RH  025%=      5-min Rain = 0
KPG1 160042Z 09007KT 34/11 A2987 RMK A01 T03370107  RH  025%=      5-min Rain = 0
KPG1 160043Z 10006KT 34/11 A2987 RMK A01 T03370106  RH  025%=      5-min Rain = 0
KPG1 160044Z 11006KT 34/11 A2987 RMK A01 T03360105  RH  024%=      5-min Rain = 0
KPG1 160045Z 11008KT 34/11 A2987 RMK A01 T03350106  RH  025%=      5-min Rain = 0
KPG1 160046Z 09006KT 34/11 A2987 RMK A01 T03350105  RH  025%=      5-min Rain = 0
KPG1 160047Z 11004KT 34/11 A2987 RMK A01 T03350105  RH  025%=      5-min Rain = 0
KPG1 160048Z 13005G10KT 33/11 A2987 RMK A01 T03340105  RH  025%=      5-min Rain = 0
KPG1 160049Z 11007KT 33/11 A2987 RMK A01 T03340105  RH  025%=      5-min Rain = 0
KPG1 160050Z 07008KT 34/10 A2988 RMK A01 T03350104  RH  024%=      5-min Rain = 0
KPG1 160051Z 11005G10KT 34/10 A2988 RMK A01 T03350103  RH  024%=      5-min Rain = 0
KPG1 160052Z 11008KT 34/10 A2988 RMK A01 T03350103  RH  024%=      5-min Rain = 0
KPG1 160053Z 08008KT 34/10 A2988 RMK A01 T03350102  RH  024%=      5-min Rain = 0
KPG1 160054Z 08005KT 34/10 A2988 RMK A01 T03350101  RH  024%=      5-min Rain = 0
KPG1 160055Z 13006KT 34/10 A2988 RMK A01 T03350102  RH  024%=      5-min Rain = 0
KPG1 160056Z 13009KT 34/10 A2988 RMK A01 T03350103  RH  024%=      5-min Rain = 0
KPG1 160057Z 13009KT 34/10 A2988 RMK A01 T03350102  RH  024%=      5-min Rain = 0
KPG1 160058Z 11007KT 34/10 A2988 RMK A01 T03350101  RH  024%=      5-min Rain = 0
KPG1 160059Z 13009KT 34/10 A2988 RMK A01 T03350100  RH  024%=      5-min Rain = 0
KPG1 160100Z 10007KT 34/10 A2988 RMK A01 T03350099  RH  024%=      5-min Rain = 0
KPG1 160101Z 13005KT 34/10 A2988 RMK A01 T03350099  RH  024%=      5-min Rain = 0
KPG1 160102Z 11008KT 34/10 A2988 RMK A01 T03350098  RH  023%=      5-min Rain = 0
KPG1 160103Z 11007KT 33/10 A2988 RMK A01 T03340098  RH  023%=      5-min Rain = 0
KPG1 160104Z 10007KT 33/10 A2988 RMK A01 T03340098  RH  023%=      5-min Rain = 0
KPG1 160105Z 09005G10KT 33/10 A2988 RMK A01 T03340099  RH  024%=      5-min Rain = 0
KPG1 160106Z 09007KT 33/10 A2988 RMK A01 T03340099  RH  024%=      5-min Rain = 0
KPG1 160107Z 09005KT 33/10 A2988 RMK A01 T03330099  RH  024%=      5-min Rain = 0
KPG1 160108Z 09005KT 33/10 A2988 RMK A01 T03330098  RH  024%=      5-min Rain = 0
KPG1 160109Z 11003KT 33/10 A2988 RMK A01 T03330098  RH  024%=      5-min Rain = 0
KPG1 160110Z 13006KT 33/10 A2988 RMK A01 T03320099  RH  024%=      5-min Rain = 0
KPG1 160111Z 13006KT 33/10 A2988 RMK A01 T03320100  RH  024%=      5-min Rain = 0
KPG1 160112Z 11004KT 33/10 A2988 RMK A01 T03320099  RH  024%=      5-min Rain = 0
KPG1 160113Z 11006KT 33/10 A2988 RMK A01 T03320099  RH  024%=      5-min Rain = 0
KPG1 160114Z 09005KT 33/10 A2988 RMK A01 T03320098  RH  024%=      5-min Rain = 0
KPG1 160115Z 09006KT 33/10 A2988 RMK A01 T03320098  RH  024%=      5-min Rain = 0
KPG1 160116Z 11005KT 33/10 A2988 RMK A01 T03310097  RH  024%=      5-min Rain = 0
KPG1 160117Z 13005KT 33/10 A2988 RMK A01 T03310097  RH  024%=      5-min Rain = 0
KPG1 160118Z 14007KT 33/10 A2988 RMK A01 T03310097  RH  024%=      5-min Rain = 0
KPG1 160119Z 13010KT 33/10 A2988 RMK A01 T03310097  RH  024%=      5-min Rain = 0
KPG1 160120Z 12010KT 33/10 A2988 RMK A01 T03310096  RH  024%=      5-min Rain = 0
KPG1 160121Z 12008KT 33/10 A2988 RMK A01 T03310095  RH  024%=      5-min Rain = 0
KPG1 160122Z 11010KT 33/10 A2988 RMK A01 T03310095  RH  023%=      5-min Rain = 0
KPG1 160123Z 11008KT 33/10 A2988 RMK A01 T03310095  RH  023%=      5-min Rain = 0
KPG1 160124Z 11009KT 33/10 A2988 RMK A01 T03310095  RH  023%=      5-min Rain = 0
KPG1 160125Z 10008KT 33/09 A2988 RMK A01 T03300094  RH  023%=      5-min Rain = 0
KPG1 160126Z 12006KT 33/09 A2988 RMK A01 T03300094  RH  023%=      5-min Rain = 0
KPG1 160127Z 13004KT 33/09 A2988 RMK A01 T03300094  RH  023%=      5-min Rain = 0
KPG1 160128Z 13007KT 33/09 A2988 RMK A01 T03290094  RH  024%=      5-min Rain = 0
KPG1 160129Z 13008KT 33/09 A2988 RMK A01 T03290094  RH  024%=      5-min Rain = 0
KPG1 160130Z 13007KT 33/09 A2988 RMK A01 T03290094  RH  024%=      5-min Rain = 0
KPG1 160131Z 13007KT 33/09 A2989 RMK A01 T03290094  RH  024%=      5-min Rain = 0
KPG1 160132Z 13008KT 33/09 A2989 RMK A01 T03290094  RH  024%=      5-min Rain = 0
KPG1 160133Z 12007KT 33/09 A2989 RMK A01 T03290094  RH  024%=      5-min Rain = 0
KPG1 160134Z 09005KT 33/09 A2989 RMK A01 T03280094  RH  024%=      5-min Rain = 0
KPG1 160135Z 09004KT 33/09 A2989 RMK A01 T03290094  RH  024%=      5-min Rain = 0
KPG1 160136Z 13005KT 33/09 A2989 RMK A01 T03280094  RH  024%=      5-min Rain = 0
KPG1 160137Z 11007KT 33/09 A2989 RMK A01 T03280094  RH  024%=      5-min Rain = 0
KPG1 160138Z 11008KT 33/09 A2989 RMK A01 T03270094  RH  024%=      5-min Rain = 0
KPG1 160139Z 12009KT 33/09 A2989 RMK A01 T03270093  RH  024%=      5-min Rain = 0
KPG1 160140Z 13007KT 33/09 A2989 RMK A01 T03270093  RH  024%=      5-min Rain = 0
KPG1 160141Z 13007KT 33/09 A2989 RMK A01 T03280093  RH  024%=      5-min Rain = 0
KPG1 160142Z 12006KT 33/09 A2989 RMK A01 T03280093  RH  024%=      5-min Rain = 0
KPG1 160143Z 12005KT 33/09 A2989 RMK A01 T03280094  RH  024%=      5-min Rain = 0
KPG1 160144Z 10005KT 33/09 A2989 RMK A01 T03280094  RH  024%=      5-min Rain = 0
KPG1 160145Z 07003KT 33/09 A2989 RMK A01 T03280094  RH  024%=      5-min Rain = 0
KPG1 160146Z 07004KT 33/09 A2989 RMK A01 T03270094  RH  024%=      5-min Rain = 0
KPG1 160147Z 08004KT 33/09 A2989 RMK A01 T03260094  RH  024%=      5-min Rain = 0
KPG1 160148Z 07003KT 32/09 A2989 RMK A01 T03240094  RH  024%=      5-min Rain = 0
KPG1 160149Z 06004KT 32/09 A2989 RMK A01 T03230094  RH  024%=      5-min Rain = 0
KPG1 160150Z 08004KT 32/09 A2989 RMK A01 T03220094  RH  024%=      5-min Rain = 0
KPG1 160151Z 09005KT 32/09 A2989 RMK A01 T03220094  RH  025%=      5-min Rain = 0
KPG1 160152Z 08004KT 32/09 A2989 RMK A01 T03220094  RH  025%=      5-min Rain = 0
KPG1 160153Z 08004KT 32/10 A2989 RMK A01 T03220095  RH  025%=      5-min Rain = 0
KPG1 160154Z 06004KT 32/10 A2989 RMK A01 T03210095  RH  025%=      5-min Rain = 0
KPG1 160155Z 07003KT 32/10 A2989 RMK A01 T03210095  RH  025%=      5-min Rain = 0
KPG1 160156Z 08004KT 32/10 A2989 RMK A01 T03210095  RH  025%=      5-min Rain = 0
KPG1 160157Z 08003KT 32/10 A2989 RMK A01 T03210095  RH  025%=      5-min Rain = 0
KPG1 160158Z 12004KT 32/10 A2989 RMK A01 T03200095  RH  025%=      5-min Rain = 0
KPG1 160159Z 12005KT 32/10 A2989 RMK A01 T03210095  RH  025%=      5-min Rain = 0
KPG1 160200Z 13005KT 32/10 A2989 RMK A01 T03220095  RH  025%=      5-min Rain = 0
KPG1 160201Z 13007KT 32/10 A2989 RMK A01 T03230095  RH  025%=      5-min Rain = 0
KPG1 160202Z 12004KT 32/10 A2989 RMK A01 T03230095  RH  024%=      5-min Rain = 0
KPG1 160203Z 12006KT 32/10 A2989 RMK A01 T03240095  RH  024%=      5-min Rain = 0
KPG1 160204Z 12008KT 32/10 A2989 RMK A01 T03240095  RH  024%=      5-min Rain = 0
KPG1 160205Z 12007KT 32/09 A2989 RMK A01 T03240094  RH  024%=      5-min Rain = 0
KPG1 160206Z 11005KT 32/10 A2989 RMK A01 T03240095  RH  024%=      5-min Rain = 0
KPG1 160207Z 11006KT 32/10 A2989 RMK A01 T03240095  RH  024%=      5-min Rain = 0
KPG1 160208Z 10004KT 32/09 A2989 RMK A01 T03240094  RH  024%=      5-min Rain = 0
KPG1 160209Z 08004KT 32/09 A2989 RMK A01 T03240094  RH  024%=      5-min Rain = 0
KPG1 160210Z 06005KT 32/09 A299 RMK A01 T03220094  RH  024%=      5-min Rain = 0
KPG1 160211Z 07006KT 32/09 A299 RMK A01 T03190093  RH  025%=      5-min Rain = 0
KPG1 160212Z 08006KT 32/09 A299 RMK A01 T03190093  RH  025%=      5-min Rain = 0
KPG1 160213Z 09004KT 32/09 A299 RMK A01 T03180093  RH  025%=      5-min Rain = 0
KPG1 160214Z 09008KT 32/09 A299 RMK A01 T03190093  RH  025%=      5-min Rain = 0
KPG1 160215Z 09008KT 32/09 A299 RMK A01 T03190092  RH  025%=      5-min Rain = 0
KPG1 160216Z 08006KT 32/09 A299 RMK A01 T03210092  RH  024%=      5-min Rain = 0
KPG1 160217Z 07006KT 32/09 A299 RMK A01 T03210092  RH  024%=      5-min Rain = 0
KPG1 160218Z 08006KT 32/09 A299 RMK A01 T03220092  RH  024%=      5-min Rain = 0
KPG1 160219Z 09006KT 32/09 A299 RMK A01 T03210092  RH  024%=      5-min Rain = 0
KPG1 160220Z 08005KT 32/09 A299 RMK A01 T03200091  RH  024%=      5-min Rain = 0
KPG1 160221Z 09003KT 32/09 A299 RMK A01 T03190092  RH  025%=      5-min Rain = 0
KPG1 160222Z 09005KT 32/09 A299 RMK A01 T03170091  RH  025%=      5-min Rain = 0
KPG1 160223Z 11006KT 32/09 A299 RMK A01 T03160090  RH  025%=      5-min Rain = 0
KPG1 160224Z 12006KT 32/09 A299 RMK A01 T03170090  RH  025%=      5-min Rain = 0
KPG1 160225Z 13007KT 32/09 A299 RMK A01 T03170090  RH  025%=      5-min Rain = 0
KPG1 160226Z 13007KT 32/09 A299 RMK A01 T03180090  RH  024%=      5-min Rain = 0
KPG1 160227Z 14006KT 32/09 A299 RMK A01 T03180090  RH  024%=      5-min Rain = 0
KPG1 160228Z 14005KT 32/09 A299 RMK A01 T03180089  RH  024%=      5-min Rain = 0
KPG1 160229Z 14005KT 32/09 A299 RMK A01 T03180090  RH  024%=      5-min Rain = 0
KPG1 160230Z 13007KT 32/09 A299 RMK A01 T03170090  RH  024%=      5-min Rain = 0
KPG1 160231Z 13007KT 32/09 A299 RMK A01 T03170089  RH  024%=      5-min Rain = 0
KPG1 160232Z 13007KT 32/09 A299 RMK A01 T03170089  RH  024%=      5-min Rain = 0
KPG1 160233Z 12005KT 32/09 A299 RMK A01 T03170089  RH  024%=      5-min Rain = 0
KPG1 160234Z 12005KT 32/09 A299 RMK A01 T03170089  RH  024%=      5-min Rain = 0
KPG1 160235Z 12006KT 32/09 A299 RMK A01 T03170089  RH  024%=      5-min Rain = 0
KPG1 160236Z 11005KT 32/09 A299 RMK A01 T03170089  RH  024%=      5-min Rain = 0
KPG1 160237Z 09005KT 32/09 A299 RMK A01 T03160089  RH  024%=      5-min Rain = 0
KPG1 160238Z 08005KT 32/09 A299 RMK A01 T03160089  RH  024%=      5-min Rain = 0
KPG1 160239Z 09004KT 32/09 A299 RMK A01 T03150089  RH  025%=      5-min Rain = 0
KPG1 160240Z 09005KT 32/09 A299 RMK A01 T03150089  RH  025%=      5-min Rain = 0
KPG1 160241Z 09005KT 31/09 A299 RMK A01 T03140089  RH  025%=      5-min Rain = 0
KPG1 160242Z 09004KT 31/09 A299 RMK A01 T03140089  RH  025%=      5-min Rain = 0
KPG1 160243Z 09004KT 31/09 A299 RMK A01 T03140089  RH  025%=      5-min Rain = 0
KPG1 160244Z 08004KT 31/09 A299 RMK A01 T03140089  RH  025%=      5-min Rain = 0
KPG1 160245Z 10003KT 31/09 A299 RMK A01 T03130089  RH  025%=      5-min Rain = 0
KPG1 160246Z 09003KT 31/09 A2991 RMK A01 T03130089  RH  025%=      5-min Rain = 0
KPG1 160247Z 09003KT 31/09 A2991 RMK A01 T03130089  RH  025%=      5-min Rain = 0
KPG1 160248Z 09003KT 31/09 A2991 RMK A01 T03130089  RH  025%=      5-min Rain = 0
KPG1 160249Z 11004KT 31/09 A2991 RMK A01 T03120089  RH  025%=      5-min Rain = 0
KPG1 160250Z 10004KT 31/09 A2991 RMK A01 T03120089  RH  025%=      5-min Rain = 0
KPG1 160251Z 09006KT 31/09 A2991 RMK A01 T03120089  RH  025%=      5-min Rain = 0
KPG1 160252Z 10005KT 31/09 A2991 RMK A01 T03120089  RH  025%=      5-min Rain = 0
KPG1 160253Z 10006KT 31/09 A2991 RMK A01 T03130089  RH  025%=      5-min Rain = 0
KPG1 160254Z 09006KT 31/09 A2991 RMK A01 T03130089  RH  025%=      5-min Rain = 0
KPG1 160255Z 09006KT 31/09 A2991 RMK A01 T03130089  RH  025%=      5-min Rain = 0
KPG1 160256Z 08006KT 31/09 A2991 RMK A01 T03130088  RH  025%=      5-min Rain = 0
KPG1 160257Z 07006KT 31/09 A2991 RMK A01 T03140089  RH  025%=      5-min Rain = 0
KPG1 160258Z 07008KT 31/09 A2991 RMK A01 T03130089  RH  025%=      5-min Rain = 0
KPG1 160259Z 06008KT 31/09 A2991 RMK A01 T03130089  RH  025%=      5-min Rain = 0
KPG1 160300Z 07008KT 31/09 A2991 RMK A01 T03120089  RH  025%=      5-min Rain = 0
KPG1 160301Z 06007KT 31/09 A2991 RMK A01 T03110089  RH  025%=      5-min Rain = 0
KPG1 160302Z 06006KT 31/09 A2991 RMK A01 T03100089  RH  025%=      5-min Rain = 0
KPG1 160303Z 07007KT 31/09 A2991 RMK A01 T03090088  RH  025%=      5-min Rain = 0
KPG1 160304Z 07007KT 31/09 A2991 RMK A01 T03080089  RH  026%=      5-min Rain = 0
KPG1 160305Z 06007KT 31/09 A2991 RMK A01 T03080089  RH  026%=      5-min Rain = 0
KPG1 160306Z 06007KT 31/09 A2991 RMK A01 T03070089  RH  026%=      5-min Rain = 0
KPG1 160307Z 07008KT 31/09 A2991 RMK A01 T03060089  RH  026%=      5-min Rain = 0
KPG1 160308Z 07006KT 31/09 A2991 RMK A01 T03050089  RH  026%=      5-min Rain = 0
KPG1 160309Z 06006KT 31/09 A2991 RMK A01 T03050089  RH  026%=      5-min Rain = 0
KPG1 160310Z 06007KT 31/09 A2991 RMK A01 T03050089  RH  026%=      5-min Rain = 0
KPG1 160311Z 07008KT 30/09 A2991 RMK A01 T03040089  RH  026%=      5-min Rain = 0
KPG1 160312Z 07007KT 30/09 A2991 RMK A01 T03040090  RH  026%=      5-min Rain = 0
KPG1 160313Z 06006KT 31/09 A2991 RMK A01 T03060090  RH  026%=      5-min Rain = 0
KPG1 160314Z 07007KT 31/09 A2991 RMK A01 T03060090  RH  026%=      5-min Rain = 0
KPG1 160315Z 07006KT 31/09 A2991 RMK A01 T03060090  RH  026%=      5-min Rain = 0
KPG1 160316Z 07006KT 31/09 A2991 RMK A01 T03060090  RH  026%=      5-min Rain = 0
KPG1 160317Z 08004KT 31/09 A2991 RMK A01 T03060090  RH  026%=      5-min Rain = 0
KPG1 160318Z 06005KT 31/09 A2991 RMK A01 T03060090  RH  026%=      5-min Rain = 0
KPG1 160319Z 07006KT 31/09 A2991 RMK A01 T03050090  RH  026%=      5-min Rain = 0
KPG1 160320Z 07006KT 31/09 A2991 RMK A01 T03050090  RH  026%=      5-min Rain = 0
KPG1 160321Z 07008KT 31/09 A2991 RMK A01 T03050090  RH  026%=      5-min Rain = 0
KPG1 160322Z 06007KT 31/09 A2991 RMK A01 T03060091  RH  026%=      5-min Rain = 0
KPG1 160323Z 06008KT 31/09 A2991 RMK A01 T03060090  RH  026%=      5-min Rain = 0
KPG1 160324Z 05007KT 31/09 A2991 RMK A01 T03050090  RH  026%=      5-min Rain = 0
KPG1 160325Z 05008KT 30/09 A2991 RMK A01 T03040090  RH  026%=      5-min Rain = 0
KPG1 160326Z 05008KT 30/09 A2991 RMK A01 T03030090  RH  027%=      5-min Rain = 0
KPG1 160327Z 06010KT 30/09 A2992 RMK A01 T03030091  RH  027%=      5-min Rain = 0
KPG1 160328Z 05010KT 30/09 A2992 RMK A01 T03030091  RH  027%=      5-min Rain = 0
KPG1 160329Z 06009KT 30/09 A2992 RMK A01 T03030091  RH  027%=      5-min Rain = 0
KPG1 160330Z 05007KT 30/09 A2992 RMK A01 T03040092  RH  027%=      5-min Rain = 0
KPG1 160331Z 06007KT 30/09 A2992 RMK A01 T03030092  RH  027%=      5-min Rain = 0
KPG1 160332Z 07006KT 30/09 A2992 RMK A01 T03020091  RH  027%=      5-min Rain = 0
KPG1 160333Z 07008KT 30/09 A2992 RMK A01 T03000091  RH  027%=      5-min Rain = 0
KPG1 160334Z 06009KT 30/09 A2992 RMK A01 T02990091  RH  027%=      5-min Rain = 0
KPG1 160335Z 08009KT 30/09 A2992 RMK A01 T02990093  RH  028%=      5-min Rain = 0
KPG1 160336Z 11009KT 30/09 A2992 RMK A01 T03000092  RH  027%=      5-min Rain = 0
KPG1 160337Z 11010KT 30/09 A2992 RMK A01 T03030092  RH  027%=      5-min Rain = 0
KPG1 160338Z 13006KT 31/09 A2992 RMK A01 T03050093  RH  027%=      5-min Rain = 0
KPG1 160339Z 13007KT 31/09 A2992 RMK A01 T03060092  RH  027%=      5-min Rain = 0
KPG1 160340Z 14007KT 31/09 A2992 RMK A01 T03060092  RH  027%=      5-min Rain = 0
KPG1 160341Z 12006KT 31/09 A2992 RMK A01 T03060093  RH  027%=      5-min Rain = 0
KPG1 160342Z 12005KT 31/09 A2992 RMK A01 T03060093  RH  027%=      5-min Rain = 0
KPG1 160343Z 12004KT 31/09 A2992 RMK A01 T03050093  RH  027%=      5-min Rain = 0
KPG1 160344Z 11004KT 30/09 A2992 RMK A01 T03040094  RH  027%=      5-min Rain = 0
KPG1 160345Z 13006KT 30/09 A2992 RMK A01 T03040094  RH  027%=      5-min Rain = 0
KPG1 160346Z 13007KT 30/10 A2992 RMK A01 T03030096  RH  028%=      5-min Rain = 0
KPG1 160347Z 13007KT 30/10 A2992 RMK A01 T03040098  RH  028%=      5-min Rain = 0
KPG1 160348Z 13008KT 30/10 A2992 RMK A01 T03030099  RH  028%=      5-min Rain = 0
KPG1 160349Z 14006KT 30/10 A2992 RMK A01 T03030100  RH  028%=      5-min Rain = 0
KPG1 160350Z 14005KT 30/10 A2993 RMK A01 T03030101  RH  029%=      5-min Rain = 0
KPG1 160351Z 14004KT 30/10 A2993 RMK A01 T03010101  RH  029%=      5-min Rain = 0
KPG1 160352Z 14004KT 30/10 A2993 RMK A01 T03000102  RH  029%=      5-min Rain = 0
KPG1 160353Z 14006KT 30/10 A2993 RMK A01 T03000102  RH  029%=      5-min Rain = 0
KPG1 160354Z 14005KT 30/10 A2993 RMK A01 T02990104  RH  030%=      5-min Rain = 0
KPG1 160355Z 14006KT 30/11 A2993 RMK A01 T02990105  RH  030%=      5-min Rain = 0
KPG1 160356Z 14004KT 30/11 A2993 RMK A01 T02990106  RH  030%=      5-min Rain = 0
KPG1 160357Z 14004KT 30/11 A2993 RMK A01 T02990106  RH  030%=      5-min Rain = 0
KPG1 160358Z 14006KT 30/11 A2993 RMK A01 T02980109  RH  031%=      5-min Rain = 0
KPG1 160359Z 14004KT 30/11 A2993 RMK A01 T02980110  RH  031%=      5-min Rain = 0
KPG1 160400Z 15004KT 30/11 A2993 RMK A01 T02970111  RH  032%=      5-min Rain = 0
KPG1 160401Z 13004KT 30/11 A2993 RMK A01 T02970113  RH  032%=      5-min Rain = 0
KPG1 160402Z 13005KT 30/11 A2993 RMK A01 T02980114  RH  032%=      5-min Rain = 0
KPG1 160403Z 14006KT 30/12 A2993 RMK A01 T02970116  RH  033%=      5-min Rain = 0
KPG1 160404Z 14004KT 30/12 A2993 RMK A01 T02970117  RH  033%=      5-min Rain = 0
KPG1 160405Z 14006KT 30/12 A2993 RMK A01 T02970118  RH  033%=      5-min Rain = 0
KPG1 160406Z 15005KT 30/12 A2993 RMK A01 T02960119  RH  033%=      5-min Rain = 0
KPG1 160407Z 14005KT 30/12 A2993 RMK A01 T02960119  RH  034%=      5-min Rain = 0
KPG1 160408Z 15006KT 30/12 A2993 RMK A01 T02960120  RH  034%=      5-min Rain = 0
KPG1 160409Z 14005KT 30/12 A2993 RMK A01 T02950121  RH  034%=      5-min Rain = 0
KPG1 160410Z 14004KT 30/12 A2993 RMK A01 T02950121  RH  034%=      5-min Rain = 0
KPG1 160411Z 14005KT 29/12 A2993 RMK A01 T02940121  RH  034%=      5-min Rain = 0
KPG1 160412Z 14005KT 29/12 A2993 RMK A01 T02930121  RH  035%=      5-min Rain = 0
KPG1 160413Z 15005KT 29/12 A2993 RMK A01 T02930122  RH  035%=      5-min Rain = 0
KPG1 160414Z 14005KT 29/12 A2993 RMK A01 T02930122  RH  035%=      5-min Rain = 0
KPG1 160415Z 13004KT 29/12 A2993 RMK A01 T02930123  RH  035%=      5-min Rain = 0
KPG1 160416Z 13004KT 29/12 A2993 RMK A01 T02930123  RH  035%=      5-min Rain = 0
KPG1 160417Z 13007KT 29/12 A2993 RMK A01 T02930124  RH  035%=      5-min Rain = 0
KPG1 160418Z 14008KT 29/12 A2993 RMK A01 T02920124  RH  035%=      5-min Rain = 0
KPG1 160419Z 13007KT 29/12 A2993 RMK A01 T02920124  RH  035%=      5-min Rain = 0
KPG1 160420Z 13006KT 29/12 A2993 RMK A01 T02930124  RH  035%=      5-min Rain = 0
KPG1 160421Z 12005KT 29/12 A2993 RMK A01 T02930124  RH  035%=      5-min Rain = 0
KPG1 160422Z 13004KT 29/12 A2993 RMK A01 T02920124  RH  035%=      5-min Rain = 0
KPG1 160423Z 14003KT 29/12 A2993 RMK A01 T02920124  RH  036%=      5-min Rain = 0
KPG1 160424Z 14004KT 29/12 A2993 RMK A01 T02910124  RH  036%=      5-min Rain = 0
KPG1 160425Z 15005KT 29/12 A2993 RMK A01 T02910124  RH  036%=      5-min Rain = 0
KPG1 160426Z 14004KT 29/13 A2993 RMK A01 T02910125  RH  036%=      5-min Rain = 0
KPG1 160427Z 14003KT 29/12 A2993 RMK A01 T02900124  RH  036%=      5-min Rain = 0
KPG1 160428Z 13004KT 29/12 A2993 RMK A01 T02900124  RH  036%=      5-min Rain = 0
KPG1 160429Z 12003KT 29/12 A2993 RMK A01 T02890124  RH  036%=      5-min Rain = 0
KPG1 160430Z 12002KT 29/12 A2993 RMK A01 T02890124  RH  036%=      5-min Rain = 0
KPG1 160431Z 14006KT 29/12 A2993 RMK A01 T02890124  RH  036%=      5-min Rain = 0
KPG1 160432Z 14005KT 29/12 A2993 RMK A01 T02880124  RH  036%=      5-min Rain = 0
KPG1 160433Z 14005KT 29/12 A2993 RMK A01 T02880124  RH  036%=      5-min Rain = 0
KPG1 160434Z 14004KT 29/12 A2993 RMK A01 T02880124  RH  036%=      5-min Rain = 0
KPG1 160435Z 14005KT 29/12 A2993 RMK A01 T02880124  RH  036%=      5-min Rain = 0
KPG1 160436Z 14005KT 29/13 A2993 RMK A01 T02880125  RH  036%=      5-min Rain = 0
KPG1 160437Z 15005KT 29/12 A2993 RMK A01 T02880124  RH  036%=      5-min Rain = 0
KPG1 160438Z 15004KT 29/13 A2993 RMK A01 T02880125  RH  036%=      5-min Rain = 0
KPG1 160439Z 15004KT 29/12 A2993 RMK A01 T02880124  RH  036%=      5-min Rain = 0
KPG1 160440Z 16004KT 29/12 A2993 RMK A01 T02870124  RH  037%=      5-min Rain = 0
KPG1 160441Z 15004KT 29/12 A2993 RMK A01 T02870124  RH  037%=      5-min Rain = 0
KPG1 160442Z 15003KT 29/12 A2993 RMK A01 T02860124  RH  037%=      5-min Rain = 0
KPG1 160443Z 16005KT 29/12 A2993 RMK A01 T02860124  RH  037%=      5-min Rain = 0
KPG1 160444Z 15004KT 29/12 A2993 RMK A01 T02850124  RH  037%=      5-min Rain = 0
KPG1 160445Z 16003KT 29/12 A2993 RMK A01 T02850124  RH  037%=      5-min Rain = 0
KPG1 160446Z 15005KT 28/12 A2993 RMK A01 T02840124  RH  037%=      5-min Rain = 0
KPG1 160447Z 16004KT 28/13 A2993 RMK A01 T02840125  RH  037%=      5-min Rain = 0
KPG1 160448Z 16004KT 28/12 A2993 RMK A01 T02840124  RH  037%=      5-min Rain = 0
KPG1 160449Z 15006KT 28/12 A2993 RMK A01 T02830124  RH  037%=      5-min Rain = 0
KPG1 160450Z 15004KT 28/12 A2993 RMK A01 T02830124  RH  038%=      5-min Rain = 0
KPG1 160451Z 15004KT 28/12 A2993 RMK A01 T02820124  RH  038%=      5-min Rain = 0
KPG1 160452Z 15007KT 28/13 A2993 RMK A01 T02820125  RH  038%=      5-min Rain = 0
KPG1 160453Z 15005KT 28/13 A2993 RMK A01 T02820125  RH  038%=      5-min Rain = 0
KPG1 160454Z 15004KT 28/13 A2993 RMK A01 T02820125  RH  038%=      5-min Rain = 0
KPG1 160455Z 15006KT 28/13 A2993 RMK A01 T02820125  RH  038%=      5-min Rain = 0
KPG1 160456Z 15006KT 28/13 A2993 RMK A01 T02820125  RH  038%=      5-min Rain = 0
KPG1 160457Z 14006KT 28/13 A2993 RMK A01 T02830125  RH  038%=      5-min Rain = 0
KPG1 160458Z 15005KT 28/13 A2993 RMK A01 T02820125  RH  038%=      5-min Rain = 0
KPG1 160459Z 15005KT 28/13 A2993 RMK A01 T02820125  RH  038%=      5-min Rain = 0

Page generated in 0.0325 seconds.